UAL989 KIAD-EDDF
Flight info
| Callsign | UAL989 |
|---|---|
| Flight time | 7h 31m |
| Altitude | 33000 |
| Route | JCOBY4 SWANN DCT BROSS Q419 RBV Q430 ACK DCT KANNI N343B JOOPY/M084F330 NATW XETBO/N0477F330 DCT KER DCT ENJEX DCT ADHAV DCT AXNEF DCT ZIPWE DCT OZZIL DCT SAWPE Q63 CPT UL9 BIG L607 KONAN DCT KOK UL607 FERDI DCT REMBA DCT SPI T180 NIVNU T847 IMCOM IMCOM1A |
| Aircraft | B77W/H-SDE1E2E3FGHIJ2J3J4J5M1RWXY/LB1D1 |
Departure
| Time | 2026-05-05 21:47 |
|---|---|
| Airport | Washington Dulles International Airport (KIAD) |
Arrival
| Time | 2026-05-06 05:19 |
|---|---|
| Airport | Frankfurt Main Airport (EDDF) |
| Time | Latitude | Longitude | Altitude | Speed | Heading |
|---|---|---|---|---|---|
| 2026-05-05 20:51 | 38.94479 | -77.44442 | 324 ft | 0 kts | 8° |
| 2026-05-05 21:22 | 38.94478 | -77.44442 | 324 ft | 1 kts | 8° |
| 2026-05-05 21:22 | 38.94464 | -77.44443 | 324 ft | 2 kts | 353° |
| 2026-05-05 21:22 | 38.94450 | -77.44439 | 324 ft | 2 kts | 338° |
| 2026-05-05 21:23 | 38.94437 | -77.44430 | 324 ft | 2 kts | 324° |
| 2026-05-05 21:23 | 38.94426 | -77.44418 | 324 ft | 2 kts | 310° |
| 2026-05-05 21:23 | 38.94417 | -77.44402 | 324 ft | 2 kts | 297° |
| 2026-05-05 21:23 | 38.94412 | -77.44385 | 324 ft | 2 kts | 283° |
| 2026-05-05 21:24 | 38.94410 | -77.44366 | 324 ft | 2 kts | 270° |
| 2026-05-05 21:24 | 38.94411 | -77.44346 | 324 ft | 2 kts | 269° |
| 2026-05-05 21:24 | 38.94411 | -77.44328 | 324 ft | 0 kts | 271° |
| 2026-05-05 21:24 | 38.94411 | -77.44327 | 324 ft | 0 kts | 271° |
| 2026-05-05 21:27 | 38.94411 | -77.44328 | 324 ft | 1 kts | 271° |
| 2026-05-05 21:27 | 38.94411 | -77.44360 | 324 ft | 2 kts | 271° |
| 2026-05-05 21:28 | 38.94411 | -77.44392 | 324 ft | 4 kts | 270° |
| 2026-05-05 21:28 | 38.94411 | -77.44455 | 324 ft | 9 kts | 270° |
| 2026-05-05 21:28 | 38.94412 | -77.44533 | 324 ft | 7 kts | 270° |
| 2026-05-05 21:28 | 38.94387 | -77.44582 | 324 ft | 6 kts | 196° |
| 2026-05-05 21:29 | 38.94350 | -77.44585 | 324 ft | 4 kts | 182° |
| 2026-05-05 21:29 | 38.94321 | -77.44587 | 324 ft | 4 kts | 181° |
| 2026-05-05 21:29 | 38.94266 | -77.44588 | 324 ft | 10 kts | 181° |
| 2026-05-05 21:29 | 38.94200 | -77.44589 | 324 ft | 9 kts | 181° |
| 2026-05-05 21:30 | 38.94128 | -77.44598 | 324 ft | 7 kts | 209° |
| 2026-05-05 21:30 | 38.94110 | -77.44669 | 324 ft | 10 kts | 268° |
| 2026-05-05 21:30 | 38.94109 | -77.44781 | 324 ft | 17 kts | 271° |
| 2026-05-05 21:30 | 38.94111 | -77.44946 | 324 ft | 17 kts | 271° |
| 2026-05-05 21:31 | 38.94113 | -77.45088 | 324 ft | 14 kts | 271° |
| 2026-05-05 21:31 | 38.94114 | -77.45215 | 324 ft | 14 kts | 271° |
| 2026-05-05 21:31 | 38.94115 | -77.45353 | 324 ft | 16 kts | 271° |
| 2026-05-05 21:31 | 38.94117 | -77.45494 | 324 ft | 9 kts | 271° |
| 2026-05-05 21:32 | 38.94117 | -77.45503 | 324 ft | 0 kts | 271° |
| 2026-05-05 21:33 | 38.94117 | -77.45505 | 324 ft | 1 kts | 271° |
| 2026-05-05 21:34 | 38.94117 | -77.45541 | 324 ft | 4 kts | 271° |
| 2026-05-05 21:34 | 38.94117 | -77.45586 | 324 ft | 6 kts | 271° |
| 2026-05-05 21:34 | 38.94118 | -77.45651 | 324 ft | 6 kts | 271° |
| 2026-05-05 21:34 | 38.94117 | -77.45701 | 324 ft | 4 kts | 258° |
| 2026-05-05 21:35 | 38.94096 | -77.45726 | 324 ft | 3 kts | 199° |
| 2026-05-05 21:35 | 38.94076 | -77.45729 | 324 ft | 2 kts | 182° |
| 2026-05-05 21:39 | 38.94058 | -77.45730 | 324 ft | 8 kts | 182° |
| 2026-05-05 21:40 | 38.94012 | -77.45705 | 324 ft | 6 kts | 112° |
| 2026-05-05 21:40 | 38.93997 | -77.45647 | 324 ft | 8 kts | 122° |
| 2026-05-05 21:40 | 38.93948 | -77.45618 | 324 ft | 7 kts | 178° |
| 2026-05-05 21:40 | 38.93930 | -77.45618 | 324 ft | 1 kts | 180° |
| 2026-05-05 21:41 | 38.93909 | -77.45618 | 324 ft | 4 kts | 180° |
| 2026-05-05 21:41 | 38.93851 | -77.45618 | 324 ft | 10 kts | 181° |
| 2026-05-05 21:41 | 38.93782 | -77.45619 | 324 ft | 9 kts | 181° |
| 2026-05-05 21:41 | 38.93713 | -77.45615 | 324 ft | 10 kts | 158° |
| 2026-05-05 21:42 | 38.93659 | -77.45544 | 324 ft | 11 kts | 130° |
| 2026-05-05 21:42 | 38.93602 | -77.45498 | 324 ft | 8 kts | 178° |
| 2026-05-05 21:42 | 38.93547 | -77.45515 | 324 ft | 7 kts | 199° |
| 2026-05-05 21:42 | 38.93519 | -77.45528 | 324 ft | 0 kts | 200° |
| 2026-05-05 21:43 | 38.93518 | -77.45528 | 324 ft | 0 kts | 200° |
| 2026-05-05 21:43 | 38.93507 | -77.45533 | 324 ft | 2 kts | 201° |
| 2026-05-05 21:43 | 38.93494 | -77.45540 | 324 ft | 2 kts | 201° |
| 2026-05-05 21:43 | 38.93480 | -77.45547 | 324 ft | 0 kts | 201° |
| 2026-05-05 21:44 | 38.93479 | -77.45548 | 324 ft | 0 kts | 201° |
| 2026-05-05 21:44 | 38.93449 | -77.45562 | 324 ft | 8 kts | 201° |
| 2026-05-05 21:44 | 38.93389 | -77.45591 | 324 ft | 6 kts | 201° |
| 2026-05-05 21:45 | 38.93373 | -77.45622 | 324 ft | 3 kts | 266° |
| 2026-05-05 21:45 | 38.93375 | -77.45634 | 324 ft | 0 kts | 287° |
| 2026-05-05 21:45 | 38.93376 | -77.45638 | 324 ft | 0 kts | 289° |
| 2026-05-05 21:46 | 38.93378 | -77.45646 | 324 ft | 5 kts | 289° |
| 2026-05-05 21:46 | 38.93436 | -77.45843 | 324 ft | 55 kts | 290° |
| 2026-05-05 21:46 | 38.93664 | -77.46619 | 325 ft | 128 kts | 290° |
| 2026-05-05 21:47 | 38.94060 | -77.47959 | 328 ft | 191 kts | 290° |
| 2026-05-05 21:47 | 38.94584 | -77.49641 | 786 ft | 213 kts | 286° |
| 2026-05-05 21:47 | 38.95148 | -77.51422 | 1718 ft | 223 kts | 288° |
| 2026-05-05 21:47 | 38.96015 | -77.52962 | 2744 ft | 213 kts | 306° |
| 2026-05-05 21:48 | 38.97068 | -77.54340 | 3180 ft | 225 kts | 308° |
| 2026-05-05 21:48 | 38.98236 | -77.55882 | 3258 ft | 253 kts | 308° |
| 2026-05-05 21:48 | 38.99519 | -77.57525 | 3717 ft | 270 kts | 317° |
| 2026-05-05 21:48 | 39.01236 | -77.58584 | 4270 ft | 289 kts | 346° |
| 2026-05-05 21:49 | 39.03274 | -77.58597 | 4970 ft | 298 kts | 7° |
| 2026-05-05 21:49 | 39.05277 | -77.57925 | 5704 ft | 301 kts | 18° |
| 2026-05-05 21:49 | 39.07232 | -77.56967 | 6409 ft | 305 kts | 19° |
| 2026-05-05 21:49 | 39.09201 | -77.55961 | 7126 ft | 306 kts | 20° |
| 2026-05-05 21:50 | 39.11029 | -77.54536 | 7815 ft | 310 kts | 44° |
| 2026-05-05 21:50 | 39.12276 | -77.52286 | 8429 ft | 313 kts | 70° |
| 2026-05-05 21:50 | 39.12867 | -77.49635 | 9056 ft | 314 kts | 80° |
| 2026-05-05 21:50 | 39.13319 | -77.46880 | 9722 ft | 316 kts | 80° |
| 2026-05-05 21:51 | 39.13762 | -77.44105 | 10288 ft | 322 kts | 80° |
| 2026-05-05 21:51 | 39.14222 | -77.41211 | 10565 ft | 339 kts | 80° |
| 2026-05-05 21:51 | 39.14707 | -77.38148 | 10841 ft | 356 kts | 80° |
| 2026-05-05 21:51 | 39.15207 | -77.34998 | 11131 ft | 372 kts | 79° |
| 2026-05-05 21:52 | 39.15562 | -77.28153 | 11715 ft | 400 kts | 100° |
| 2026-05-05 21:52 | 39.15012 | -77.24575 | 12132 ft | 410 kts | 106° |
| 2026-05-05 21:52 | 39.14365 | -77.20996 | 12718 ft | 417 kts | 105° |
| 2026-05-05 21:53 | 39.13710 | -77.17325 | 13417 ft | 421 kts | 105° |
| 2026-05-05 21:53 | 39.13092 | -77.13669 | 14146 ft | 423 kts | 104° |
| 2026-05-05 21:53 | 39.12492 | -77.09979 | 14825 ft | 426 kts | 104° |
| 2026-05-05 21:53 | 39.11885 | -77.06221 | 15495 ft | 430 kts | 104° |
| 2026-05-05 21:54 | 39.11282 | -77.02480 | 16148 ft | 433 kts | 104° |
| 2026-05-05 21:54 | 39.10814 | -76.98635 | 16786 ft | 438 kts | 96° |
| 2026-05-05 21:54 | 39.10791 | -76.94726 | 17394 ft | 443 kts | 90° |
| 2026-05-05 21:54 | 39.10892 | -76.90742 | 18102 ft | 444 kts | 89° |
| 2026-05-05 21:55 | 39.10998 | -76.86784 | 18720 ft | 447 kts | 89° |
| 2026-05-05 21:55 | 39.11102 | -76.82809 | 19257 ft | 452 kts | 89° |
| 2026-05-05 21:55 | 39.11205 | -76.78767 | 19833 ft | 455 kts | 89° |
| 2026-05-05 21:55 | 39.11306 | -76.74699 | 20399 ft | 459 kts | 89° |
| 2026-05-05 21:56 | 39.11407 | -76.70587 | 21130 ft | 457 kts | 89° |
| 2026-05-05 21:56 | 39.11504 | -76.66572 | 21973 ft | 452 kts | 89° |
| 2026-05-05 21:56 | 39.11597 | -76.62613 | 22560 ft | 453 kts | 89° |
| 2026-05-05 21:56 | 39.11694 | -76.58439 | 22983 ft | 459 kts | 89° |
| 2026-05-05 21:57 | 39.11787 | -76.54351 | 23399 ft | 463 kts | 89° |
| 2026-05-05 21:57 | 39.12053 | -76.50201 | 23892 ft | 466 kts | 82° |
| 2026-05-05 21:57 | 39.12513 | -76.46062 | 24125 ft | 475 kts | 81° |
| 2026-05-05 21:57 | 39.12996 | -76.41855 | 24607 ft | 477 kts | 81° |
| 2026-05-05 21:58 | 39.13478 | -76.37631 | 24884 ft | 480 kts | 81° |
| 2026-05-05 21:58 | 39.13954 | -76.33433 | 24891 ft | 477 kts | 82° |
| 2026-05-05 21:58 | 39.14435 | -76.29168 | 24980 ft | 483 kts | 82° |
| 2026-05-05 21:58 | 39.14915 | -76.24898 | 25697 ft | 478 kts | 82° |
| 2026-05-05 21:59 | 39.15384 | -76.20729 | 26635 ft | 469 kts | 81° |
| 2026-05-05 21:59 | 39.15854 | -76.16660 | 27322 ft | 465 kts | 81° |
| 2026-05-05 21:59 | 39.16332 | -76.12517 | 27715 ft | 467 kts | 81° |
| 2026-05-05 21:59 | 39.16808 | -76.08388 | 27985 ft | 473 kts | 81° |
| 2026-05-05 22:00 | 39.17287 | -76.04208 | 28347 ft | 475 kts | 81° |
| 2026-05-05 22:00 | 39.17770 | -75.99969 | 28804 ft | 476 kts | 81° |
| 2026-05-05 22:00 | 39.18359 | -75.95792 | 29157 ft | 477 kts | 74° |
| 2026-05-05 22:00 | 39.19397 | -75.91749 | 29424 ft | 479 kts | 65° |
| 2026-05-05 22:01 | 39.20909 | -75.87924 | 29755 ft | 479 kts | 55° |
| 2026-05-05 22:01 | 39.22845 | -75.84445 | 30090 ft | 477 kts | 46° |
| 2026-05-05 22:01 | 39.25130 | -75.81416 | 30402 ft | 474 kts | 37° |
| 2026-05-05 22:01 | 39.27621 | -75.78669 | 30736 ft | 474 kts | 36° |
| 2026-05-05 22:02 | 39.30141 | -75.75939 | 30900 ft | 476 kts | 36° |
| 2026-05-05 22:02 | 39.35209 | -75.70428 | 30898 ft | 478 kts | 36° |
| 2026-05-05 22:03 | 39.40345 | -75.64816 | 30899 ft | 494 kts | 36° |
| 2026-05-05 22:03 | 39.45609 | -75.59037 | 30893 ft | 498 kts | 36° |
| 2026-05-05 22:04 | 39.50880 | -75.53232 | 30893 ft | 497 kts | 36° |
| 2026-05-05 22:04 | 39.56122 | -75.47444 | 30890 ft | 496 kts | 36° |
| 2026-05-05 22:05 | 39.61373 | -75.41636 | 30891 ft | 498 kts | 37° |
| 2026-05-05 22:05 | 39.66617 | -75.35821 | 30896 ft | 498 kts | 36° |
| 2026-05-05 22:06 | 39.71873 | -75.29980 | 30889 ft | 495 kts | 37° |
| 2026-05-05 22:06 | 39.77092 | -75.24169 | 30894 ft | 497 kts | 37° |
| 2026-05-05 22:07 | 39.81950 | -75.17726 | 30979 ft | 506 kts | 46° |
| 2026-05-05 22:07 | 39.84264 | -75.14291 | 31431 ft | 506 kts | 45° |
| 2026-05-05 22:07 | 39.86541 | -75.10902 | 32116 ft | 500 kts | 45° |
| 2026-05-05 22:07 | 39.88804 | -75.07530 | 32769 ft | 496 kts | 45° |
| 2026-05-05 22:08 | 39.91072 | -75.04152 | 32888 ft | 499 kts | 45° |
| 2026-05-05 22:08 | 39.95629 | -74.97352 | 32882 ft | 494 kts | 45° |
| 2026-05-05 22:09 | 39.99648 | -74.90108 | 32881 ft | 498 kts | 52° |
| 2026-05-05 22:09 | 40.03488 | -74.82571 | 32884 ft | 501 kts | 52° |
| 2026-05-05 22:10 | 40.07341 | -74.74989 | 32888 ft | 497 kts | 52° |
| 2026-05-05 22:10 | 40.11134 | -74.67514 | 32898 ft | 498 kts | 52° |
| 2026-05-05 22:11 | 40.14952 | -74.59972 | 32895 ft | 498 kts | 52° |
| 2026-05-05 22:11 | 40.18760 | -74.52423 | 32885 ft | 498 kts | 53° |
| 2026-05-05 22:12 | 40.21641 | -74.44174 | 32906 ft | 505 kts | 66° |
| 2026-05-05 22:12 | 40.23937 | -74.35501 | 32908 ft | 506 kts | 67° |
| 2026-05-05 22:13 | 40.26232 | -74.26765 | 32898 ft | 507 kts | 67° |
| 2026-05-05 22:13 | 40.28488 | -74.18148 | 32900 ft | 503 kts | 68° |
| 2026-05-05 22:14 | 40.30763 | -74.09432 | 32900 ft | 505 kts | 67° |
| 2026-05-05 22:14 | 40.33022 | -74.00743 | 32893 ft | 505 kts | 67° |
| 2026-05-05 22:15 | 40.35265 | -73.92091 | 32895 ft | 505 kts | 67° |
| 2026-05-05 22:15 | 40.37511 | -73.83412 | 32899 ft | 503 kts | 67° |
| 2026-05-05 22:16 | 40.39735 | -73.74790 | 32894 ft | 502 kts | 68° |
| 2026-05-05 22:16 | 40.41962 | -73.66110 | 32902 ft | 504 kts | 68° |
| 2026-05-05 22:17 | 40.44188 | -73.57404 | 32916 ft | 503 kts | 67° |
| 2026-05-05 22:17 | 40.46402 | -73.48707 | 32915 ft | 503 kts | 68° |
| 2026-05-05 22:18 | 40.48607 | -73.40019 | 32912 ft | 502 kts | 68° |
| 2026-05-05 22:18 | 40.50803 | -73.31334 | 32904 ft | 505 kts | 68° |
| 2026-05-05 22:19 | 40.52996 | -73.22633 | 32907 ft | 505 kts | 69° |
| 2026-05-05 22:19 | 40.55192 | -73.13880 | 32908 ft | 503 kts | 69° |
| 2026-05-05 22:20 | 40.57373 | -73.05162 | 32916 ft | 503 kts | 69° |
| 2026-05-05 22:20 | 40.59532 | -72.96497 | 32918 ft | 502 kts | 69° |
| 2026-05-05 22:21 | 40.61697 | -72.87774 | 32931 ft | 502 kts | 69° |
| 2026-05-05 22:21 | 40.63858 | -72.79040 | 32929 ft | 503 kts | 69° |
| 2026-05-05 22:22 | 40.65998 | -72.70355 | 32933 ft | 500 kts | 68° |
| 2026-05-05 22:22 | 40.68142 | -72.61626 | 32934 ft | 502 kts | 68° |
| 2026-05-05 22:23 | 40.70285 | -72.52866 | 32943 ft | 502 kts | 68° |
| 2026-05-05 22:23 | 40.72407 | -72.44162 | 32935 ft | 502 kts | 68° |
| 2026-05-05 22:24 | 40.74530 | -72.35420 | 32944 ft | 504 kts | 68° |
| 2026-05-05 22:24 | 40.76653 | -72.26647 | 32933 ft | 502 kts | 69° |
| 2026-05-05 22:25 | 40.78758 | -72.17910 | 32933 ft | 501 kts | 69° |
| 2026-05-05 22:25 | 40.80855 | -72.09180 | 32937 ft | 503 kts | 69° |
| 2026-05-05 22:26 | 40.82947 | -72.00434 | 32935 ft | 500 kts | 69° |
| 2026-05-05 22:26 | 40.85032 | -71.91688 | 32938 ft | 502 kts | 69° |
| 2026-05-05 22:27 | 40.87117 | -71.82904 | 32944 ft | 500 kts | 69° |
| 2026-05-05 22:27 | 40.89175 | -71.74203 | 32946 ft | 501 kts | 69° |
| 2026-05-05 22:28 | 40.91242 | -71.65430 | 32953 ft | 499 kts | 69° |
| 2026-05-05 22:28 | 40.93306 | -71.56643 | 32955 ft | 501 kts | 70° |
| 2026-05-05 22:29 | 40.95345 | -71.47919 | 32963 ft | 497 kts | 70° |
| 2026-05-05 22:29 | 40.97386 | -71.39159 | 32961 ft | 499 kts | 69° |
| 2026-05-05 22:30 | 40.99406 | -71.30455 | 32960 ft | 498 kts | 70° |
| 2026-05-05 22:30 | 41.01427 | -71.21712 | 32956 ft | 499 kts | 70° |
| 2026-05-05 22:31 | 41.03444 | -71.12953 | 32956 ft | 498 kts | 70° |
| 2026-05-05 22:31 | 41.05450 | -71.04211 | 32962 ft | 499 kts | 70° |
| 2026-05-05 22:32 | 41.07463 | -70.95406 | 32955 ft | 500 kts | 71° |
| 2026-05-05 22:32 | 41.09460 | -70.86631 | 32956 ft | 499 kts | 70° |
| 2026-05-05 22:33 | 41.11454 | -70.77834 | 32971 ft | 499 kts | 71° |
| 2026-05-05 22:33 | 41.13445 | -70.69019 | 32967 ft | 498 kts | 71° |
| 2026-05-05 22:34 | 41.15414 | -70.60270 | 32979 ft | 499 kts | 71° |
| 2026-05-05 22:34 | 41.17392 | -70.51445 | 32967 ft | 501 kts | 71° |
| 2026-05-05 22:35 | 41.19356 | -70.42648 | 32986 ft | 498 kts | 71° |
| 2026-05-05 22:35 | 41.21313 | -70.33848 | 32978 ft | 499 kts | 71° |
| 2026-05-05 22:36 | 41.23275 | -70.24991 | 32987 ft | 498 kts | 71° |
| 2026-05-05 22:36 | 41.25213 | -70.16207 | 32991 ft | 497 kts | 72° |
| 2026-05-05 22:37 | 41.27142 | -70.07433 | 32985 ft | 499 kts | 71° |
| 2026-05-05 22:37 | 41.29775 | -69.98990 | 32986 ft | 494 kts | 57° |
| 2026-05-05 22:38 | 41.33443 | -69.91220 | 32990 ft | 493 kts | 55° |
| 2026-05-05 22:38 | 41.37101 | -69.83493 | 32993 ft | 495 kts | 55° |
| 2026-05-05 22:39 | 41.40743 | -69.75731 | 32993 ft | 495 kts | 55° |
| 2026-05-05 22:39 | 41.44349 | -69.68001 | 33002 ft | 494 kts | 55° |
| 2026-05-05 22:40 | 41.47956 | -69.60234 | 33003 ft | 495 kts | 56° |
| 2026-05-05 22:40 | 41.51577 | -69.52409 | 32992 ft | 497 kts | 56° |
| 2026-05-05 22:41 | 41.55195 | -69.44566 | 33007 ft | 498 kts | 56° |
| 2026-05-05 22:41 | 41.58801 | -69.36728 | 33009 ft | 497 kts | 56° |
| 2026-05-05 22:42 | 41.62412 | -69.28855 | 33007 ft | 498 kts | 56° |
| 2026-05-05 22:42 | 41.66041 | -69.20926 | 32995 ft | 509 kts | 57° |
| 2026-05-05 22:43 | 41.69738 | -69.12822 | 32994 ft | 509 kts | 57° |
| 2026-05-05 22:43 | 41.73409 | -69.04754 | 33010 ft | 511 kts | 57° |
| 2026-05-05 22:44 | 41.77086 | -68.96650 | 33006 ft | 510 kts | 57° |
| 2026-05-05 22:44 | 41.80758 | -68.88538 | 32995 ft | 511 kts | 57° |
| 2026-05-05 22:45 | 41.84406 | -68.80454 | 32999 ft | 510 kts | 57° |
| 2026-05-05 22:45 | 41.88078 | -68.72297 | 32998 ft | 511 kts | 57° |
| 2026-05-05 22:46 | 41.91745 | -68.64129 | 33003 ft | 510 kts | 57° |
| 2026-05-05 22:46 | 41.95382 | -68.56004 | 33012 ft | 511 kts | 57° |
| 2026-05-05 22:47 | 41.99010 | -68.47879 | 33010 ft | 510 kts | 57° |
| 2026-05-05 22:47 | 42.02666 | -68.39670 | 33011 ft | 511 kts | 58° |
| 2026-05-05 22:48 | 42.06302 | -68.31480 | 33001 ft | 512 kts | 58° |
| 2026-05-05 22:48 | 42.09924 | -68.23300 | 32997 ft | 510 kts | 58° |
| 2026-05-05 22:49 | 42.13550 | -68.15089 | 33002 ft | 512 kts | 58° |
| 2026-05-05 22:49 | 42.17166 | -68.06880 | 33008 ft | 511 kts | 58° |
| 2026-05-05 22:50 | 42.20784 | -67.98641 | 33008 ft | 512 kts | 58° |
| 2026-05-05 22:50 | 42.24398 | -67.90388 | 33005 ft | 513 kts | 58° |
| 2026-05-05 22:51 | 42.28011 | -67.82116 | 32999 ft | 512 kts | 58° |
| 2026-05-05 22:51 | 42.31604 | -67.73865 | 33005 ft | 513 kts | 58° |
| 2026-05-05 22:52 | 42.35192 | -67.65605 | 32995 ft | 511 kts | 59° |
| 2026-05-05 22:52 | 42.38779 | -67.57324 | 33018 ft | 512 kts | 59° |
| 2026-05-05 22:53 | 42.42383 | -67.48977 | 33013 ft | 513 kts | 59° |
| 2026-05-05 22:53 | 42.45952 | -67.40691 | 33020 ft | 512 kts | 59° |
| 2026-05-05 22:54 | 42.49526 | -67.32369 | 33012 ft | 513 kts | 59° |
| 2026-05-05 22:54 | 42.53099 | -67.24024 | 33016 ft | 512 kts | 59° |
| 2026-05-05 22:55 | 42.56654 | -67.15698 | 33023 ft | 512 kts | 59° |
| 2026-05-05 22:55 | 42.60200 | -67.07373 | 33020 ft | 513 kts | 60° |
| 2026-05-05 22:56 | 42.63744 | -66.99029 | 33009 ft | 511 kts | 59° |
| 2026-05-05 22:56 | 42.67701 | -66.91045 | 33010 ft | 512 kts | 54° |
| 2026-05-05 22:57 | 42.71752 | -66.83097 | 33020 ft | 513 kts | 55° |
| 2026-05-05 22:57 | 42.75775 | -66.75128 | 33024 ft | 510 kts | 55° |
| 2026-05-05 22:58 | 42.79764 | -66.67175 | 33018 ft | 512 kts | 55° |
| 2026-05-05 22:58 | 42.83752 | -66.59187 | 33025 ft | 513 kts | 55° |
| 2026-05-05 22:59 | 42.87737 | -66.51172 | 33024 ft | 512 kts | 55° |
| 2026-05-05 22:59 | 42.91723 | -66.43130 | 33023 ft | 512 kts | 55° |
| 2026-05-05 23:00 | 42.97674 | -66.31077 | 33011 ft | 513 kts | 56° |
| 2026-05-05 23:00 | 43.01653 | -66.22987 | 33017 ft | 514 kts | 56° |
| 2026-05-05 23:01 | 43.05609 | -66.14923 | 33019 ft | 512 kts | 56° |
| 2026-05-05 23:01 | 43.09569 | -66.06828 | 33016 ft | 514 kts | 56° |
| 2026-05-05 23:02 | 43.13526 | -65.98718 | 33021 ft | 512 kts | 56° |
| 2026-05-05 23:02 | 43.17477 | -65.90599 | 33026 ft | 514 kts | 56° |
| 2026-05-05 23:03 | 43.21429 | -65.82452 | 33019 ft | 515 kts | 56° |
| 2026-05-05 23:03 | 43.25348 | -65.74354 | 33029 ft | 513 kts | 56° |
| 2026-05-05 23:04 | 43.29290 | -65.66186 | 33017 ft | 514 kts | 56° |
| 2026-05-05 23:04 | 43.33207 | -65.58046 | 33027 ft | 513 kts | 56° |
| 2026-05-05 23:05 | 43.37105 | -65.49922 | 33033 ft | 512 kts | 56° |
| 2026-05-05 23:05 | 43.41026 | -65.41729 | 33035 ft | 514 kts | 56° |
| 2026-05-05 23:06 | 43.44911 | -65.33588 | 33030 ft | 513 kts | 57° |
| 2026-05-05 23:06 | 43.48822 | -65.25369 | 33026 ft | 514 kts | 57° |
| 2026-05-05 23:07 | 43.52721 | -65.17152 | 33024 ft | 513 kts | 57° |
| 2026-05-05 23:07 | 43.56607 | -65.08941 | 33029 ft | 514 kts | 57° |
| 2026-05-05 23:08 | 43.60509 | -65.00674 | 33034 ft | 514 kts | 57° |
| 2026-05-05 23:08 | 43.64386 | -64.92434 | 33031 ft | 514 kts | 57° |
| 2026-05-05 23:09 | 43.68251 | -64.84197 | 33044 ft | 514 kts | 57° |
| 2026-05-05 23:09 | 43.72127 | -64.75913 | 33035 ft | 514 kts | 56° |
| 2026-05-05 23:10 | 43.75981 | -64.67654 | 33029 ft | 514 kts | 57° |
| 2026-05-05 23:10 | 43.79844 | -64.59352 | 33035 ft | 515 kts | 56° |
| 2026-05-05 23:11 | 43.83707 | -64.51025 | 33036 ft | 514 kts | 56° |
| 2026-05-05 23:11 | 43.87570 | -64.42677 | 33035 ft | 517 kts | 56° |
| 2026-05-05 23:12 | 43.91424 | -64.34321 | 33042 ft | 515 kts | 57° |
| 2026-05-05 23:12 | 43.95264 | -64.25973 | 33040 ft | 517 kts | 57° |
| 2026-05-05 23:13 | 43.99111 | -64.17585 | 33034 ft | 517 kts | 57° |
| 2026-05-05 23:13 | 44.02942 | -64.09208 | 33052 ft | 517 kts | 57° |
| 2026-05-05 23:14 | 44.06770 | -64.00814 | 33056 ft | 516 kts | 57° |
| 2026-05-05 23:14 | 44.10615 | -63.92357 | 33041 ft | 516 kts | 57° |
| 2026-05-05 23:15 | 44.14425 | -63.83953 | 33052 ft | 515 kts | 57° |
| 2026-05-05 23:15 | 44.18250 | -63.75493 | 33032 ft | 517 kts | 57° |
| 2026-05-05 23:16 | 44.22031 | -63.67102 | 33041 ft | 516 kts | 57° |
| 2026-05-05 23:16 | 44.25852 | -63.58601 | 33036 ft | 516 kts | 57° |
| 2026-05-05 23:17 | 44.29650 | -63.50124 | 33047 ft | 517 kts | 57° |
| 2026-05-05 23:17 | 44.33403 | -63.41722 | 33034 ft | 507 kts | 56° |
| 2026-05-05 23:18 | 44.37085 | -63.33458 | 33037 ft | 501 kts | 57° |
| 2026-05-05 23:18 | 44.40757 | -63.25191 | 33034 ft | 504 kts | 57° |
| 2026-05-05 23:19 | 44.44430 | -63.16900 | 33038 ft | 503 kts | 57° |
| 2026-05-05 23:19 | 44.48124 | -63.08534 | 33040 ft | 504 kts | 57° |
| 2026-05-05 23:20 | 44.51788 | -63.00215 | 33046 ft | 503 kts | 57° |
| 2026-05-05 23:20 | 44.55447 | -62.91880 | 33039 ft | 504 kts | 57° |
| 2026-05-05 23:21 | 44.59096 | -62.83547 | 33044 ft | 503 kts | 57° |
| 2026-05-05 23:21 | 44.62739 | -62.75201 | 33044 ft | 502 kts | 57° |
| 2026-05-05 23:22 | 44.66382 | -62.66831 | 33050 ft | 504 kts | 57° |
| 2026-05-05 23:22 | 44.70009 | -62.58474 | 33049 ft | 503 kts | 57° |
| 2026-05-05 23:23 | 44.73620 | -62.50127 | 33054 ft | 503 kts | 57° |
| 2026-05-05 23:23 | 44.77249 | -62.41716 | 33058 ft | 504 kts | 57° |
| 2026-05-05 23:24 | 44.80855 | -62.33332 | 33056 ft | 504 kts | 57° |
| 2026-05-05 23:24 | 44.84459 | -62.24929 | 33056 ft | 503 kts | 57° |
| 2026-05-05 23:25 | 44.88083 | -62.16454 | 33065 ft | 505 kts | 57° |
| 2026-05-05 23:25 | 44.91673 | -62.08033 | 33073 ft | 504 kts | 57° |
| 2026-05-05 23:26 | 44.95287 | -61.99530 | 33077 ft | 504 kts | 57° |
| 2026-05-05 23:26 | 44.98868 | -61.91082 | 33072 ft | 505 kts | 57° |
| 2026-05-05 23:27 | 45.02469 | -61.82559 | 33068 ft | 505 kts | 57° |
| 2026-05-05 23:27 | 45.06030 | -61.74106 | 33066 ft | 504 kts | 57° |
| 2026-05-05 23:28 | 45.09609 | -61.65585 | 33060 ft | 505 kts | 57° |
| 2026-05-05 23:28 | 45.13184 | -61.57047 | 33059 ft | 506 kts | 57° |
| 2026-05-05 23:29 | 45.16757 | -61.48487 | 33056 ft | 506 kts | 57° |
| 2026-05-05 23:29 | 45.20320 | -61.39925 | 33047 ft | 507 kts | 57° |
| 2026-05-05 23:30 | 45.23888 | -61.31325 | 33048 ft | 507 kts | 57° |
| 2026-05-05 23:30 | 45.27446 | -61.22723 | 33048 ft | 506 kts | 58° |
| 2026-05-05 23:31 | 45.30999 | -61.14108 | 33040 ft | 508 kts | 57° |
| 2026-05-05 23:31 | 45.34534 | -61.05508 | 33033 ft | 507 kts | 57° |
| 2026-05-05 23:32 | 45.38069 | -60.96883 | 33045 ft | 506 kts | 57° |
| 2026-05-05 23:32 | 45.41623 | -60.88184 | 33048 ft | 508 kts | 57° |
| 2026-05-05 23:33 | 45.45138 | -60.79556 | 33045 ft | 508 kts | 57° |
| 2026-05-05 23:33 | 45.48667 | -60.70864 | 33052 ft | 508 kts | 57° |
| 2026-05-05 23:34 | 45.52179 | -60.62188 | 33043 ft | 508 kts | 57° |
| 2026-05-05 23:34 | 45.55697 | -60.53468 | 33059 ft | 507 kts | 57° |
| 2026-05-05 23:35 | 45.59203 | -60.44754 | 33061 ft | 508 kts | 57° |
| 2026-05-05 23:35 | 45.62690 | -60.36055 | 33054 ft | 506 kts | 57° |
| 2026-05-05 23:36 | 45.66181 | -60.27323 | 33051 ft | 509 kts | 58° |
| 2026-05-05 23:36 | 45.69665 | -60.18578 | 33056 ft | 507 kts | 57° |
| 2026-05-05 23:37 | 45.73141 | -60.09829 | 33064 ft | 508 kts | 57° |
| 2026-05-05 23:37 | 45.76610 | -60.01066 | 33055 ft | 507 kts | 57° |
| 2026-05-05 23:38 | 45.80074 | -59.92289 | 33055 ft | 507 kts | 57° |
| 2026-05-05 23:38 | 45.83513 | -59.83549 | 33060 ft | 507 kts | 57° |
| 2026-05-05 23:39 | 45.86961 | -59.74756 | 33061 ft | 506 kts | 57° |
| 2026-05-05 23:39 | 45.90398 | -59.65968 | 33059 ft | 507 kts | 57° |
| 2026-05-05 23:40 | 45.93822 | -59.57180 | 33061 ft | 508 kts | 57° |
| 2026-05-05 23:40 | 45.97250 | -59.48355 | 33063 ft | 508 kts | 57° |
| 2026-05-05 23:41 | 46.00696 | -59.39455 | 33060 ft | 509 kts | 57° |
| 2026-05-05 23:41 | 46.04099 | -59.30638 | 33050 ft | 508 kts | 58° |
| 2026-05-05 23:42 | 46.07522 | -59.21739 | 33047 ft | 510 kts | 58° |
| 2026-05-05 23:42 | 46.10934 | -59.12839 | 33072 ft | 508 kts | 58° |
| 2026-05-05 23:43 | 46.14356 | -59.03887 | 33056 ft | 509 kts | 58° |
| 2026-05-05 23:43 | 46.17745 | -58.94991 | 33050 ft | 510 kts | 58° |
| 2026-05-05 23:44 | 46.21141 | -58.86047 | 33049 ft | 509 kts | 58° |
| 2026-05-05 23:44 | 46.24524 | -58.77108 | 33078 ft | 509 kts | 58° |
| 2026-05-05 23:45 | 46.27903 | -58.68148 | 33062 ft | 510 kts | 58° |
| 2026-05-05 23:45 | 46.31274 | -58.59182 | 33077 ft | 509 kts | 58° |
| 2026-05-05 23:46 | 46.34643 | -58.50190 | 33073 ft | 509 kts | 58° |
| 2026-05-05 23:46 | 46.37998 | -58.41207 | 33070 ft | 510 kts | 58° |
| 2026-05-05 23:47 | 46.41337 | -58.32237 | 33052 ft | 510 kts | 58° |
| 2026-05-05 23:47 | 46.44679 | -58.23228 | 33070 ft | 509 kts | 58° |
| 2026-05-05 23:48 | 46.48008 | -58.14223 | 33059 ft | 509 kts | 58° |
| 2026-05-05 23:48 | 46.51328 | -58.05214 | 33073 ft | 508 kts | 58° |
| 2026-05-05 23:49 | 46.54664 | -57.96131 | 33065 ft | 508 kts | 58° |
| 2026-05-05 23:49 | 46.57943 | -57.87172 | 33065 ft | 509 kts | 58° |
| 2026-05-05 23:50 | 46.61261 | -57.78079 | 33078 ft | 508 kts | 58° |
| 2026-05-05 23:50 | 46.64549 | -57.69033 | 33062 ft | 508 kts | 58° |
| 2026-05-05 23:51 | 46.67853 | -57.59914 | 33077 ft | 507 kts | 58° |
| 2026-05-05 23:51 | 46.71111 | -57.50896 | 33070 ft | 509 kts | 58° |
| 2026-05-05 23:52 | 46.74393 | -57.41774 | 33070 ft | 507 kts | 58° |
| 2026-05-05 23:52 | 46.77638 | -57.32726 | 33068 ft | 507 kts | 58° |
| 2026-05-05 23:53 | 46.80904 | -57.23588 | 33076 ft | 507 kts | 58° |
| 2026-05-05 23:53 | 46.84129 | -57.14535 | 33080 ft | 505 kts | 58° |
| 2026-05-05 23:54 | 46.87362 | -57.05427 | 33074 ft | 506 kts | 58° |
| 2026-05-05 23:54 | 46.90567 | -56.96366 | 33077 ft | 505 kts | 58° |
| 2026-05-05 23:55 | 46.93779 | -56.87257 | 33080 ft | 506 kts | 58° |
| 2026-05-05 23:55 | 46.96993 | -56.78108 | 33074 ft | 505 kts | 58° |
| 2026-05-05 23:56 | 47.00172 | -56.69031 | 33090 ft | 505 kts | 58° |
| 2026-05-05 23:56 | 47.03379 | -56.59840 | 33086 ft | 507 kts | 58° |
| 2026-05-05 23:57 | 47.06564 | -56.50679 | 33089 ft | 506 kts | 58° |
| 2026-05-05 23:57 | 47.09744 | -56.41503 | 33094 ft | 510 kts | 58° |
| 2026-05-05 23:58 | 47.12956 | -56.32202 | 33088 ft | 509 kts | 59° |
| 2026-05-05 23:58 | 47.16134 | -56.22963 | 33086 ft | 510 kts | 59° |
| 2026-05-05 23:59 | 47.19300 | -56.13725 | 33092 ft | 508 kts | 59° |
| 2026-05-05 23:59 | 47.22466 | -56.04458 | 33095 ft | 509 kts | 59° |
| 2026-05-06 00:00 | 47.25636 | -55.95146 | 33098 ft | 509 kts | 59° |
| 2026-05-06 00:00 | 47.28772 | -55.85897 | 33104 ft | 507 kts | 58° |
| 2026-05-06 00:01 | 47.31920 | -55.76586 | 33097 ft | 510 kts | 58° |
| 2026-05-06 00:01 | 47.35061 | -55.67258 | 33104 ft | 509 kts | 58° |
| 2026-05-06 00:02 | 47.38194 | -55.57923 | 33110 ft | 510 kts | 58° |
| 2026-05-06 00:02 | 47.41323 | -55.48564 | 33117 ft | 510 kts | 58° |
| 2026-05-06 00:03 | 47.44434 | -55.39226 | 33112 ft | 509 kts | 58° |
| 2026-05-06 00:03 | 47.47553 | -55.29831 | 33112 ft | 512 kts | 59° |
| 2026-05-06 00:04 | 47.50663 | -55.20424 | 33114 ft | 509 kts | 59° |
| 2026-05-06 00:04 | 47.53745 | -55.11072 | 33101 ft | 509 kts | 59° |
| 2026-05-06 00:05 | 47.58393 | -54.96900 | 33102 ft | 509 kts | 59° |
| 2026-05-06 00:06 | 47.61471 | -54.87475 | 33107 ft | 511 kts | 58° |
| 2026-05-06 00:06 | 47.64532 | -54.78062 | 33100 ft | 508 kts | 58° |
| 2026-05-06 00:07 | 47.67587 | -54.68638 | 33098 ft | 508 kts | 58° |
| 2026-05-06 00:07 | 47.70644 | -54.59171 | 33099 ft | 509 kts | 58° |
| 2026-05-06 00:08 | 47.73679 | -54.49736 | 33095 ft | 509 kts | 58° |
| 2026-05-06 00:08 | 47.76703 | -54.40302 | 33095 ft | 509 kts | 58° |
| 2026-05-06 00:09 | 47.79742 | -54.30783 | 33090 ft | 507 kts | 59° |
| 2026-05-06 00:09 | 47.82752 | -54.21325 | 33089 ft | 510 kts | 59° |
| 2026-05-06 00:10 | 47.85763 | -54.11824 | 33089 ft | 509 kts | 59° |
| 2026-05-06 00:10 | 47.88769 | -54.02301 | 33083 ft | 508 kts | 59° |
| 2026-05-06 00:11 | 47.91761 | -53.92789 | 33086 ft | 509 kts | 58° |
| 2026-05-06 00:11 | 47.94739 | -53.83286 | 33084 ft | 509 kts | 58° |
| 2026-05-06 00:12 | 47.97718 | -53.73743 | 33097 ft | 507 kts | 59° |
| 2026-05-06 00:12 | 48.00694 | -53.64175 | 33086 ft | 510 kts | 58° |
| 2026-05-06 00:13 | 48.03651 | -53.54627 | 33087 ft | 507 kts | 58° |
| 2026-05-06 00:13 | 48.06587 | -53.45115 | 33083 ft | 506 kts | 58° |
| 2026-05-06 00:14 | 48.09511 | -53.35601 | 33087 ft | 505 kts | 58° |
| 2026-05-06 00:14 | 48.12447 | -53.26022 | 33081 ft | 509 kts | 59° |
| 2026-05-06 00:15 | 48.15375 | -53.16420 | 33070 ft | 508 kts | 59° |
| 2026-05-06 00:15 | 48.18284 | -53.06845 | 33076 ft | 506 kts | 59° |
| 2026-05-06 00:16 | 48.21168 | -52.97320 | 33075 ft | 507 kts | 59° |
| 2026-05-06 00:16 | 48.24068 | -52.87705 | 33076 ft | 506 kts | 59° |
| 2026-05-06 00:17 | 48.26933 | -52.78166 | 33082 ft | 505 kts | 58° |
| 2026-05-06 00:17 | 48.29815 | -52.68535 | 33079 ft | 505 kts | 59° |
| 2026-05-06 00:18 | 48.32662 | -52.58982 | 33076 ft | 505 kts | 59° |
| 2026-05-06 00:18 | 48.35522 | -52.49353 | 33077 ft | 507 kts | 58° |
| 2026-05-06 00:19 | 48.38376 | -52.39697 | 33083 ft | 503 kts | 58° |
| 2026-05-06 00:19 | 48.41198 | -52.30117 | 33074 ft | 504 kts | 59° |
| 2026-05-06 00:20 | 48.44025 | -52.20488 | 33069 ft | 508 kts | 59° |
| 2026-05-06 00:20 | 48.46870 | -52.10747 | 33077 ft | 505 kts | 59° |
| 2026-05-06 00:21 | 48.49653 | -52.01067 | 33077 ft | 507 kts | 60° |
| 2026-05-06 00:21 | 48.52253 | -51.91231 | 33077 ft | 508 kts | 61° |
| 2026-05-06 00:22 | 48.54837 | -51.81332 | 33070 ft | 506 kts | 61° |
| 2026-05-06 00:22 | 48.57399 | -51.71458 | 33081 ft | 510 kts | 61° |
| 2026-05-06 00:23 | 48.59964 | -51.61503 | 33076 ft | 506 kts | 61° |
| 2026-05-06 00:23 | 48.62500 | -51.51620 | 33084 ft | 509 kts | 61° |
| 2026-05-06 00:24 | 48.65030 | -51.41707 | 33083 ft | 506 kts | 61° |
| 2026-05-06 00:24 | 48.67543 | -51.31821 | 33072 ft | 508 kts | 62° |
| 2026-05-06 00:25 | 48.70059 | -51.21874 | 33073 ft | 506 kts | 61° |
| 2026-05-06 00:25 | 48.72572 | -51.11904 | 33076 ft | 510 kts | 62° |
| 2026-05-06 00:26 | 48.75066 | -51.01948 | 33071 ft | 506 kts | 61° |
| 2026-05-06 00:26 | 48.77552 | -50.91994 | 33072 ft | 508 kts | 62° |
| 2026-05-06 00:27 | 48.80039 | -50.81991 | 33074 ft | 509 kts | 61° |
| 2026-05-06 00:27 | 48.82509 | -50.72004 | 33073 ft | 509 kts | 62° |
| 2026-05-06 00:28 | 48.84981 | -50.61968 | 33079 ft | 508 kts | 62° |
| 2026-05-06 00:28 | 48.87421 | -50.52013 | 33078 ft | 505 kts | 62° |
| 2026-05-06 00:29 | 48.89889 | -50.41907 | 33075 ft | 509 kts | 62° |
| 2026-05-06 00:29 | 48.92309 | -50.31943 | 33062 ft | 507 kts | 63° |
| 2026-05-06 00:30 | 48.94751 | -50.21851 | 33070 ft | 509 kts | 63° |
| 2026-05-06 00:30 | 48.97188 | -50.11736 | 33065 ft | 512 kts | 63° |
| 2026-05-06 00:31 | 48.99596 | -50.01597 | 33065 ft | 513 kts | 66° |
| 2026-05-06 00:31 | 49.01284 | -49.91071 | 33062 ft | 514 kts | 71° |
| 2026-05-06 00:32 | 49.02834 | -49.80403 | 33072 ft | 520 kts | 71° |
| 2026-05-06 00:32 | 49.04373 | -49.69688 | 33074 ft | 516 kts | 72° |
| 2026-05-06 00:33 | 49.05891 | -49.59054 | 33069 ft | 518 kts | 71° |
| 2026-05-06 00:33 | 49.07408 | -49.48332 | 33070 ft | 516 kts | 72° |
| 2026-05-06 00:34 | 49.08902 | -49.37705 | 33080 ft | 518 kts | 72° |
| 2026-05-06 00:34 | 49.10394 | -49.27010 | 33077 ft | 515 kts | 73° |
| 2026-05-06 00:35 | 49.11878 | -49.16298 | 33072 ft | 515 kts | 73° |
| 2026-05-06 00:35 | 49.13341 | -49.05654 | 33077 ft | 516 kts | 73° |
| 2026-05-06 00:36 | 49.14797 | -48.94989 | 33087 ft | 514 kts | 73° |
| 2026-05-06 00:36 | 49.16253 | -48.84250 | 33084 ft | 518 kts | 73° |
| 2026-05-06 00:37 | 49.17693 | -48.73531 | 33088 ft | 515 kts | 73° |
| 2026-05-06 00:37 | 49.19120 | -48.62842 | 33090 ft | 517 kts | 73° |
| 2026-05-06 00:38 | 49.20538 | -48.52140 | 33090 ft | 516 kts | 73° |
| 2026-05-06 00:38 | 49.21946 | -48.41433 | 33092 ft | 516 kts | 73° |
| 2026-05-06 00:39 | 49.23349 | -48.30671 | 33089 ft | 514 kts | 74° |
| 2026-05-06 00:39 | 49.24731 | -48.20004 | 33091 ft | 517 kts | 75° |
| 2026-05-06 00:40 | 49.26112 | -48.09252 | 33091 ft | 516 kts | 75° |
| 2026-05-06 00:40 | 49.27485 | -47.98484 | 33081 ft | 515 kts | 75° |
| 2026-05-06 00:41 | 49.28842 | -47.87756 | 33094 ft | 514 kts | 75° |
| 2026-05-06 00:41 | 49.30185 | -47.77051 | 33079 ft | 516 kts | 75° |
| 2026-05-06 00:42 | 49.31528 | -47.66267 | 33087 ft | 515 kts | 75° |
| 2026-05-06 00:42 | 49.32852 | -47.55548 | 33090 ft | 516 kts | 75° |
| 2026-05-06 00:43 | 49.34181 | -47.44702 | 33083 ft | 516 kts | 75° |
| 2026-05-06 00:43 | 49.35481 | -47.33997 | 33088 ft | 516 kts | 76° |
| 2026-05-06 00:44 | 49.36788 | -47.23156 | 33080 ft | 516 kts | 76° |
| 2026-05-06 00:44 | 49.38075 | -47.12387 | 33075 ft | 516 kts | 76° |
| 2026-05-06 00:45 | 49.39357 | -47.01566 | 33080 ft | 517 kts | 76° |
| 2026-05-06 00:45 | 49.40629 | -46.90746 | 33092 ft | 517 kts | 76° |
| 2026-05-06 00:46 | 49.41895 | -46.79886 | 33097 ft | 519 kts | 76° |
| 2026-05-06 00:46 | 49.43141 | -46.69099 | 33096 ft | 517 kts | 77° |
| 2026-05-06 00:47 | 49.44392 | -46.58181 | 33101 ft | 518 kts | 77° |
| 2026-05-06 00:47 | 49.45620 | -46.47364 | 33097 ft | 519 kts | 76° |
| 2026-05-06 00:48 | 49.46846 | -46.36471 | 33098 ft | 519 kts | 77° |
| 2026-05-06 00:48 | 49.48067 | -46.25534 | 33093 ft | 521 kts | 78° |
| 2026-05-06 00:49 | 49.49276 | -46.14597 | 33089 ft | 519 kts | 78° |
| 2026-05-06 00:49 | 49.50473 | -46.03666 | 33094 ft | 520 kts | 78° |
| 2026-05-06 00:50 | 49.51663 | -45.92710 | 33096 ft | 520 kts | 78° |
| 2026-05-06 00:50 | 49.52834 | -45.81828 | 33105 ft | 521 kts | 78° |
| 2026-05-06 00:51 | 49.54001 | -45.70872 | 33103 ft | 520 kts | 78° |
| 2026-05-06 00:51 | 49.55159 | -45.59909 | 33107 ft | 521 kts | 78° |
| 2026-05-06 00:52 | 49.56309 | -45.48917 | 33115 ft | 521 kts | 78° |
| 2026-05-06 00:52 | 49.57444 | -45.37964 | 33117 ft | 521 kts | 78° |
| 2026-05-06 00:53 | 49.58580 | -45.26888 | 33109 ft | 522 kts | 79° |
| 2026-05-06 00:53 | 49.59695 | -45.15913 | 33106 ft | 522 kts | 79° |
| 2026-05-06 00:54 | 49.60805 | -45.04886 | 33114 ft | 522 kts | 80° |
| 2026-05-06 00:54 | 49.61908 | -44.93813 | 33123 ft | 523 kts | 79° |
| 2026-05-06 00:55 | 49.62996 | -44.82780 | 33120 ft | 521 kts | 79° |
| 2026-05-06 00:55 | 49.64065 | -44.71826 | 33123 ft | 521 kts | 79° |
| 2026-05-06 00:56 | 49.65134 | -44.60764 | 33132 ft | 521 kts | 79° |
| 2026-05-06 00:56 | 49.66189 | -44.49738 | 33132 ft | 522 kts | 79° |
| 2026-05-06 00:57 | 49.67236 | -44.38681 | 33137 ft | 522 kts | 79° |
| 2026-05-06 00:57 | 49.68273 | -44.27605 | 33124 ft | 522 kts | 81° |
| 2026-05-06 00:58 | 49.69298 | -44.16547 | 33128 ft | 521 kts | 80° |
| 2026-05-06 00:58 | 49.70309 | -44.05516 | 33120 ft | 522 kts | 81° |
| 2026-05-06 00:59 | 49.71314 | -43.94431 | 33135 ft | 523 kts | 81° |
| 2026-05-06 00:59 | 49.72306 | -43.83378 | 33132 ft | 523 kts | 81° |
| 2026-05-06 01:00 | 49.73294 | -43.72242 | 33134 ft | 521 kts | 81° |
| 2026-05-06 01:00 | 49.74263 | -43.61192 | 33143 ft | 523 kts | 81° |
| 2026-05-06 01:01 | 49.75225 | -43.50096 | 33134 ft | 521 kts | 81° |
| 2026-05-06 01:01 | 49.76172 | -43.39062 | 33130 ft | 522 kts | 81° |
| 2026-05-06 01:02 | 49.77113 | -43.27948 | 33127 ft | 522 kts | 82° |
| 2026-05-06 01:02 | 49.78045 | -43.16833 | 33127 ft | 522 kts | 82° |
| 2026-05-06 01:03 | 49.78959 | -43.05782 | 33125 ft | 522 kts | 82° |
| 2026-05-06 01:03 | 49.79869 | -42.94664 | 33127 ft | 522 kts | 82° |
| 2026-05-06 01:04 | 49.80770 | -42.83505 | 33133 ft | 522 kts | 82° |
| 2026-05-06 01:04 | 49.81657 | -42.72393 | 33134 ft | 520 kts | 82° |
| 2026-05-06 01:05 | 49.82527 | -42.61358 | 33132 ft | 521 kts | 82° |
| 2026-05-06 01:05 | 49.83391 | -42.50264 | 33133 ft | 520 kts | 82° |
| 2026-05-06 01:06 | 49.84246 | -42.39143 | 33136 ft | 519 kts | 82° |
| 2026-05-06 01:06 | 49.85084 | -42.28108 | 33131 ft | 518 kts | 83° |
| 2026-05-06 01:07 | 49.85909 | -42.17094 | 33130 ft | 518 kts | 83° |
| 2026-05-06 01:07 | 49.86729 | -42.06012 | 33132 ft | 517 kts | 83° |
| 2026-05-06 01:08 | 49.87535 | -41.94961 | 33133 ft | 517 kts | 83° |
| 2026-05-06 01:08 | 49.88329 | -41.83935 | 33137 ft | 519 kts | 83° |
| 2026-05-06 01:09 | 49.89116 | -41.72847 | 33136 ft | 518 kts | 83° |
| 2026-05-06 01:09 | 49.89889 | -41.61817 | 33140 ft | 518 kts | 83° |
| 2026-05-06 01:10 | 49.90655 | -41.50731 | 33147 ft | 518 kts | 83° |
| 2026-05-06 01:10 | 49.91408 | -41.39676 | 33142 ft | 519 kts | 83° |
| 2026-05-06 01:11 | 49.92153 | -41.28577 | 33133 ft | 520 kts | 84° |
| 2026-05-06 01:11 | 49.92889 | -41.17446 | 33137 ft | 519 kts | 84° |
| 2026-05-06 01:12 | 49.93612 | -41.06354 | 33156 ft | 519 kts | 84° |
| 2026-05-06 01:12 | 49.94333 | -40.95134 | 33500 ft | 525 kts | 84° |
| 2026-05-06 01:12 | 49.94685 | -40.89590 | 33964 ft | 521 kts | 84° |
| 2026-05-06 01:13 | 49.95039 | -40.83957 | 34134 ft | 522 kts | 84° |
| 2026-05-06 01:13 | 49.95731 | -40.72842 | 34158 ft | 517 kts | 84° |
| 2026-05-06 01:14 | 49.96744 | -40.56237 | 34162 ft | 517 kts | 85° |
| 2026-05-06 01:14 | 49.97408 | -40.45141 | 34162 ft | 518 kts | 85° |
| 2026-05-06 01:15 | 49.98058 | -40.34100 | 34164 ft | 517 kts | 85° |
| 2026-05-06 01:15 | 49.98698 | -40.23037 | 34159 ft | 517 kts | 86° |
| 2026-05-06 01:16 | 49.99332 | -40.11903 | 34165 ft | 519 kts | 85° |
| 2026-05-06 01:16 | 49.99954 | -40.00799 | 34167 ft | 517 kts | 85° |
| 2026-05-06 01:17 | 50.01143 | -39.89897 | 34178 ft | 517 kts | 76° |
| 2026-05-06 01:17 | 50.02846 | -39.79047 | 34173 ft | 518 kts | 77° |
| 2026-05-06 01:18 | 50.04480 | -39.68209 | 34170 ft | 518 kts | 77° |
| 2026-05-06 01:18 | 50.06074 | -39.57324 | 34177 ft | 519 kts | 77° |
| 2026-05-06 01:19 | 50.07640 | -39.46413 | 34175 ft | 519 kts | 77° |
| 2026-05-06 01:19 | 50.09190 | -39.35454 | 34175 ft | 520 kts | 77° |
| 2026-05-06 01:20 | 50.10720 | -39.24513 | 34166 ft | 519 kts | 78° |
| 2026-05-06 01:20 | 50.12237 | -39.13559 | 34163 ft | 519 kts | 78° |
| 2026-05-06 01:21 | 50.13742 | -39.02593 | 34166 ft | 519 kts | 78° |
| 2026-05-06 01:21 | 50.15231 | -38.91660 | 34169 ft | 519 kts | 78° |
| 2026-05-06 01:22 | 50.16713 | -38.80689 | 34173 ft | 519 kts | 78° |
| 2026-05-06 01:22 | 50.18183 | -38.69718 | 34175 ft | 519 kts | 78° |
| 2026-05-06 01:23 | 50.19643 | -38.58744 | 34178 ft | 518 kts | 78° |
| 2026-05-06 01:23 | 50.21092 | -38.47767 | 34180 ft | 518 kts | 78° |
| 2026-05-06 01:24 | 50.22527 | -38.36806 | 34183 ft | 517 kts | 78° |
| 2026-05-06 01:24 | 50.23954 | -38.25823 | 34182 ft | 518 kts | 79° |
| 2026-05-06 01:25 | 50.25362 | -38.14897 | 34183 ft | 517 kts | 79° |
| 2026-05-06 01:25 | 50.26770 | -38.03883 | 34182 ft | 517 kts | 79° |
| 2026-05-06 01:26 | 50.28158 | -37.92943 | 34189 ft | 516 kts | 79° |
| 2026-05-06 01:26 | 50.29536 | -37.81992 | 34184 ft | 515 kts | 79° |
| 2026-05-06 01:27 | 50.30901 | -37.71058 | 34180 ft | 516 kts | 79° |
| 2026-05-06 01:27 | 50.32261 | -37.60075 | 34186 ft | 515 kts | 79° |
| 2026-05-06 01:28 | 50.33611 | -37.49086 | 34187 ft | 516 kts | 79° |
| 2026-05-06 01:28 | 50.34950 | -37.38090 | 34187 ft | 516 kts | 79° |
| 2026-05-06 01:29 | 50.36277 | -37.27106 | 34188 ft | 517 kts | 80° |
| 2026-05-06 01:29 | 50.37591 | -37.16135 | 34183 ft | 516 kts | 80° |
| 2026-05-06 01:30 | 50.38900 | -37.05117 | 34188 ft | 515 kts | 80° |
| 2026-05-06 01:30 | 50.40197 | -36.94101 | 34185 ft | 515 kts | 81° |
| 2026-05-06 01:31 | 50.41475 | -36.83155 | 34190 ft | 516 kts | 81° |
| 2026-05-06 01:31 | 50.42752 | -36.72125 | 34192 ft | 516 kts | 81° |
| 2026-05-06 01:32 | 50.44019 | -36.61085 | 34189 ft | 516 kts | 81° |
| 2026-05-06 01:32 | 50.45272 | -36.50062 | 34195 ft | 516 kts | 81° |
| 2026-05-06 01:33 | 50.46515 | -36.39038 | 34199 ft | 516 kts | 81° |
| 2026-05-06 01:33 | 50.47754 | -36.27952 | 34191 ft | 516 kts | 82° |
| 2026-05-06 01:34 | 50.48977 | -36.16904 | 34190 ft | 516 kts | 82° |
| 2026-05-06 01:34 | 50.50187 | -36.05876 | 34190 ft | 516 kts | 82° |
| 2026-05-06 01:35 | 50.51389 | -35.94824 | 34189 ft | 516 kts | 82° |
| 2026-05-06 01:35 | 50.52581 | -35.83760 | 34186 ft | 514 kts | 82° |
| 2026-05-06 01:36 | 50.53756 | -35.72743 | 34183 ft | 513 kts | 82° |
| 2026-05-06 01:36 | 50.54922 | -35.61711 | 34185 ft | 514 kts | 82° |
| 2026-05-06 01:37 | 50.56082 | -35.50638 | 34189 ft | 515 kts | 82° |
| 2026-05-06 01:37 | 50.57229 | -35.39586 | 34189 ft | 516 kts | 82° |
| 2026-05-06 01:38 | 50.58372 | -35.28453 | 34183 ft | 514 kts | 82° |
| 2026-05-06 01:38 | 50.59498 | -35.17386 | 34182 ft | 515 kts | 82° |
| 2026-05-06 01:39 | 50.60610 | -35.06342 | 34185 ft | 515 kts | 82° |
| 2026-05-06 01:39 | 50.61718 | -34.95240 | 34176 ft | 513 kts | 82° |
| 2026-05-06 01:40 | 50.62816 | -34.84110 | 34182 ft | 516 kts | 82° |
| 2026-05-06 01:40 | 50.63898 | -34.73050 | 34182 ft | 513 kts | 82° |
| 2026-05-06 01:41 | 50.64967 | -34.62000 | 34191 ft | 514 kts | 82° |
| 2026-05-06 01:41 | 50.66032 | -34.50879 | 34198 ft | 514 kts | 82° |
| 2026-05-06 01:42 | 50.67084 | -34.39778 | 34191 ft | 514 kts | 82° |
| 2026-05-06 01:42 | 50.68123 | -34.28693 | 34177 ft | 513 kts | 83° |
| 2026-05-06 01:43 | 50.69146 | -34.17669 | 34172 ft | 513 kts | 83° |
| 2026-05-06 01:43 | 50.70170 | -34.06514 | 34169 ft | 516 kts | 83° |
| 2026-05-06 01:44 | 50.71184 | -33.95351 | 34161 ft | 513 kts | 83° |
| 2026-05-06 01:44 | 50.72179 | -33.84271 | 34181 ft | 513 kts | 83° |
| 2026-05-06 01:45 | 50.73159 | -33.73238 | 34160 ft | 512 kts | 83° |
| 2026-05-06 01:45 | 50.74134 | -33.62141 | 34147 ft | 513 kts | 83° |
| 2026-05-06 01:46 | 50.75102 | -33.50988 | 34159 ft | 513 kts | 83° |
| 2026-05-06 01:46 | 50.76058 | -33.39859 | 34172 ft | 513 kts | 83° |
| 2026-05-06 01:47 | 50.76998 | -33.28785 | 34168 ft | 510 kts | 84° |
| 2026-05-06 01:47 | 50.77927 | -33.17719 | 34166 ft | 512 kts | 84° |
| 2026-05-06 01:48 | 50.78844 | -33.06665 | 34160 ft | 509 kts | 84° |
| 2026-05-06 01:48 | 50.79747 | -32.95639 | 34168 ft | 509 kts | 84° |
| 2026-05-06 01:49 | 50.80642 | -32.84581 | 34189 ft | 509 kts | 84° |
| 2026-05-06 01:49 | 50.81529 | -32.73500 | 34156 ft | 508 kts | 84° |
| 2026-05-06 01:50 | 50.82399 | -32.62493 | 34160 ft | 506 kts | 84° |
| 2026-05-06 01:50 | 50.83254 | -32.51540 | 34161 ft | 507 kts | 84° |
| 2026-05-06 01:51 | 50.84047 | -32.41259 | 34159 ft | 505 kts | 84° |
| 2026-05-06 01:51 | 50.84884 | -32.30275 | 34158 ft | 507 kts | 85° |
| 2026-05-06 01:52 | 50.85717 | -32.19193 | 34145 ft | 504 kts | 85° |
| 2026-05-06 01:52 | 50.86532 | -32.08215 | 34153 ft | 505 kts | 85° |
| 2026-05-06 01:53 | 50.87330 | -31.97332 | 34133 ft | 501 kts | 85° |
| 2026-05-06 01:53 | 50.88126 | -31.86318 | 34139 ft | 504 kts | 85° |
| 2026-05-06 01:54 | 50.88907 | -31.75391 | 34142 ft | 503 kts | 85° |
| 2026-05-06 01:54 | 50.89678 | -31.64427 | 34136 ft | 504 kts | 85° |
| 2026-05-06 01:55 | 50.90440 | -31.53459 | 34119 ft | 502 kts | 85° |
| 2026-05-06 01:55 | 50.91192 | -31.42490 | 34146 ft | 503 kts | 85° |
| 2026-05-06 01:56 | 50.91935 | -31.31480 | 34131 ft | 503 kts | 86° |
| 2026-05-06 01:56 | 50.92665 | -31.20503 | 34127 ft | 504 kts | 86° |
| 2026-05-06 01:57 | 50.93383 | -31.09580 | 34121 ft | 501 kts | 86° |
| 2026-05-06 01:57 | 50.94093 | -30.98592 | 34134 ft | 504 kts | 86° |
| 2026-05-06 01:58 | 50.94791 | -30.87637 | 34131 ft | 502 kts | 86° |
| 2026-05-06 01:58 | 50.95481 | -30.76636 | 34133 ft | 505 kts | 86° |
| 2026-05-06 01:59 | 50.96166 | -30.65557 | 34124 ft | 502 kts | 86° |
| 2026-05-06 01:59 | 50.96834 | -30.54572 | 34130 ft | 504 kts | 86° |
| 2026-05-06 02:00 | 50.97493 | -30.43568 | 34127 ft | 502 kts | 86° |
| 2026-05-06 02:00 | 50.98135 | -30.32657 | 34122 ft | 501 kts | 86° |
| 2026-05-06 02:01 | 50.98772 | -30.21675 | 34129 ft | 501 kts | 86° |
| 2026-05-06 02:01 | 50.99396 | -30.10730 | 34132 ft | 502 kts | 86° |
| 2026-05-06 02:02 | 51.00015 | -29.99689 | 34135 ft | 501 kts | 86° |
| 2026-05-06 02:02 | 51.01319 | -29.88875 | 34142 ft | 502 kts | 77° |
| 2026-05-06 02:03 | 51.02995 | -29.78141 | 34141 ft | 503 kts | 77° |
| 2026-05-06 02:03 | 51.04605 | -29.67401 | 34144 ft | 501 kts | 78° |
| 2026-05-06 02:04 | 51.06173 | -29.56636 | 34147 ft | 501 kts | 78° |
| 2026-05-06 02:04 | 51.07709 | -29.45888 | 34146 ft | 501 kts | 78° |
| 2026-05-06 02:05 | 51.09217 | -29.35189 | 34150 ft | 498 kts | 78° |
| 2026-05-06 02:05 | 51.10715 | -29.24458 | 34146 ft | 499 kts | 79° |
| 2026-05-06 02:06 | 51.12194 | -29.13752 | 34148 ft | 500 kts | 79° |
| 2026-05-06 02:06 | 51.13679 | -29.02925 | 34149 ft | 499 kts | 79° |
| 2026-05-06 02:07 | 51.15142 | -28.92168 | 34148 ft | 500 kts | 79° |
| 2026-05-06 02:07 | 51.16587 | -28.81461 | 34152 ft | 498 kts | 79° |
| 2026-05-06 02:08 | 51.18031 | -28.70679 | 34150 ft | 497 kts | 79° |
| 2026-05-06 02:08 | 51.19454 | -28.59969 | 34152 ft | 499 kts | 79° |
| 2026-05-06 02:09 | 51.20880 | -28.49160 | 34151 ft | 498 kts | 79° |
| 2026-05-06 02:09 | 51.22290 | -28.38388 | 34154 ft | 499 kts | 79° |
| 2026-05-06 02:10 | 51.23696 | -28.27567 | 34147 ft | 499 kts | 79° |
| 2026-05-06 02:10 | 51.25081 | -28.16824 | 34152 ft | 497 kts | 79° |
| 2026-05-06 02:11 | 51.26465 | -28.06009 | 34151 ft | 500 kts | 79° |
| 2026-05-06 02:11 | 51.27830 | -27.95248 | 34152 ft | 499 kts | 79° |
| 2026-05-06 02:12 | 51.29201 | -27.84355 | 34152 ft | 500 kts | 79° |
| 2026-05-06 02:12 | 51.30549 | -27.73569 | 34157 ft | 499 kts | 79° |
| 2026-05-06 02:13 | 51.31891 | -27.62744 | 34167 ft | 499 kts | 79° |
| 2026-05-06 02:14 | 51.34486 | -27.41549 | 34172 ft | 496 kts | 79° |
| 2026-05-06 02:14 | 51.35793 | -27.30748 | 34163 ft | 496 kts | 79° |
| 2026-05-06 02:15 | 51.37087 | -27.19972 | 34164 ft | 496 kts | 79° |
| 2026-05-06 02:15 | 51.38374 | -27.09152 | 34171 ft | 496 kts | 79° |
| 2026-05-06 02:16 | 51.39648 | -26.98357 | 34171 ft | 496 kts | 79° |
| 2026-05-06 02:16 | 51.40919 | -26.87504 | 34174 ft | 495 kts | 79° |
| 2026-05-06 02:17 | 51.42169 | -26.76731 | 34175 ft | 494 kts | 79° |
| 2026-05-06 02:17 | 51.43418 | -26.65880 | 34178 ft | 495 kts | 79° |
| 2026-05-06 02:18 | 51.44646 | -26.55115 | 34178 ft | 494 kts | 79° |
| 2026-05-06 02:18 | 51.45870 | -26.44296 | 34181 ft | 494 kts | 79° |
| 2026-05-06 02:19 | 51.47078 | -26.33521 | 34180 ft | 494 kts | 79° |
| 2026-05-06 02:19 | 51.48278 | -26.22730 | 34180 ft | 495 kts | 79° |
| 2026-05-06 02:20 | 51.50063 | -26.06498 | 34184 ft | 493 kts | 79° |
| 2026-05-06 02:21 | 51.51234 | -25.95724 | 34195 ft | 493 kts | 79° |
| 2026-05-06 02:21 | 51.52395 | -25.84947 | 34194 ft | 492 kts | 79° |
| 2026-05-06 02:22 | 51.53553 | -25.74104 | 34195 ft | 493 kts | 78° |
| 2026-05-06 02:22 | 51.54697 | -25.63296 | 34196 ft | 493 kts | 79° |
| 2026-05-06 02:23 | 51.55826 | -25.52519 | 34195 ft | 491 kts | 78° |
| 2026-05-06 02:23 | 51.56946 | -25.41738 | 34197 ft | 492 kts | 78° |
| 2026-05-06 02:24 | 51.58055 | -25.30965 | 34198 ft | 491 kts | 79° |
| 2026-05-06 02:24 | 51.59157 | -25.20153 | 34194 ft | 492 kts | 79° |
| 2026-05-06 02:25 | 51.60248 | -25.09348 | 34197 ft | 491 kts | 79° |
| 2026-05-06 02:25 | 51.61324 | -24.98586 | 34196 ft | 491 kts | 78° |
| 2026-05-06 02:26 | 51.62400 | -24.87727 | 34193 ft | 491 kts | 78° |
| 2026-05-06 02:26 | 51.63457 | -24.76949 | 34192 ft | 490 kts | 78° |
| 2026-05-06 02:27 | 51.64499 | -24.66214 | 34193 ft | 490 kts | 78° |
| 2026-05-06 02:27 | 51.65538 | -24.55412 | 34190 ft | 488 kts | 78° |
| 2026-05-06 02:28 | 51.66565 | -24.44626 | 34192 ft | 488 kts | 78° |
| 2026-05-06 02:28 | 51.67577 | -24.33886 | 34192 ft | 488 kts | 79° |
| 2026-05-06 02:29 | 51.68582 | -24.23115 | 34189 ft | 488 kts | 79° |
| 2026-05-06 02:29 | 51.69572 | -24.12383 | 34189 ft | 486 kts | 79° |
| 2026-05-06 02:30 | 51.70551 | -24.01671 | 34190 ft | 486 kts | 78° |
| 2026-05-06 02:30 | 51.71523 | -23.90921 | 34189 ft | 485 kts | 78° |
| 2026-05-06 02:31 | 51.72483 | -23.80201 | 34189 ft | 485 kts | 78° |
| 2026-05-06 02:31 | 51.73433 | -23.69468 | 34186 ft | 485 kts | 78° |
| 2026-05-06 02:32 | 51.74371 | -23.58753 | 34184 ft | 484 kts | 78° |
| 2026-05-06 02:32 | 51.75302 | -23.48016 | 34182 ft | 484 kts | 78° |
| 2026-05-06 02:33 | 51.76219 | -23.37307 | 34178 ft | 483 kts | 78° |
| 2026-05-06 02:33 | 51.76522 | -23.33750 | 34174 ft | 483 kts | 79° |
| 2026-05-06 02:34 | 51.78021 | -23.15939 | 34164 ft | 482 kts | 79° |
| 2026-05-06 02:34 | 51.78904 | -23.05274 | 34171 ft | 483 kts | 78° |
| 2026-05-06 02:35 | 51.79788 | -22.94497 | 34172 ft | 488 kts | 78° |
| 2026-05-06 02:35 | 51.80673 | -22.83580 | 34173 ft | 495 kts | 79° |
| 2026-05-06 02:36 | 51.81544 | -22.72684 | 34166 ft | 491 kts | 78° |
| 2026-05-06 02:36 | 51.82409 | -22.61731 | 34167 ft | 492 kts | 78° |
| 2026-05-06 02:37 | 51.83263 | -22.50796 | 34163 ft | 492 kts | 78° |
| 2026-05-06 02:37 | 51.84101 | -22.39937 | 34161 ft | 491 kts | 78° |
| 2026-05-06 02:38 | 51.84937 | -22.28970 | 34160 ft | 491 kts | 79° |
| 2026-05-06 02:38 | 51.85751 | -22.18141 | 34157 ft | 489 kts | 79° |
| 2026-05-06 02:39 | 51.86562 | -22.07232 | 34154 ft | 489 kts | 79° |
| 2026-05-06 02:39 | 51.87363 | -21.96314 | 34151 ft | 490 kts | 79° |
| 2026-05-06 02:40 | 51.88151 | -21.85426 | 34148 ft | 489 kts | 79° |
| 2026-05-06 02:40 | 51.88928 | -21.74552 | 34152 ft | 490 kts | 79° |
| 2026-05-06 02:41 | 51.89700 | -21.63615 | 34152 ft | 489 kts | 79° |
| 2026-05-06 02:41 | 51.90455 | -21.52744 | 34149 ft | 488 kts | 78° |
| 2026-05-06 02:42 | 51.91196 | -21.41948 | 34147 ft | 486 kts | 78° |
| 2026-05-06 02:42 | 51.91931 | -21.31092 | 34154 ft | 487 kts | 79° |
| 2026-05-06 02:43 | 51.92656 | -21.20233 | 34151 ft | 487 kts | 79° |
| 2026-05-06 02:43 | 51.93373 | -21.09335 | 34146 ft | 488 kts | 79° |
| 2026-05-06 02:44 | 51.94079 | -20.98447 | 34150 ft | 488 kts | 79° |
| 2026-05-06 02:44 | 51.94774 | -20.87561 | 34147 ft | 486 kts | 79° |
| 2026-05-06 02:45 | 51.95457 | -20.76723 | 34146 ft | 486 kts | 79° |
| 2026-05-06 02:45 | 51.96129 | -20.65872 | 34143 ft | 484 kts | 79° |
| 2026-05-06 02:46 | 51.96789 | -20.55077 | 34146 ft | 484 kts | 79° |
| 2026-05-06 02:46 | 51.97439 | -20.44278 | 34145 ft | 483 kts | 79° |
| 2026-05-06 02:47 | 51.98075 | -20.33532 | 34143 ft | 482 kts | 79° |
| 2026-05-06 02:47 | 51.98705 | -20.22740 | 34144 ft | 482 kts | 79° |
| 2026-05-06 02:48 | 51.99326 | -20.11916 | 34147 ft | 482 kts | 79° |
| 2026-05-06 02:48 | 51.99902 | -20.01144 | 34142 ft | 482 kts | 82° |
| 2026-05-06 02:49 | 52.00171 | -19.90330 | 34139 ft | 483 kts | 82° |
| 2026-05-06 02:49 | 52.00399 | -19.79522 | 34137 ft | 484 kts | 82° |
| 2026-05-06 02:50 | 52.00612 | -19.68649 | 34136 ft | 482 kts | 83° |
| 2026-05-06 02:50 | 52.00811 | -19.57849 | 34136 ft | 481 kts | 83° |
| 2026-05-06 02:51 | 52.00997 | -19.47043 | 34132 ft | 479 kts | 83° |
| 2026-05-06 02:51 | 52.01174 | -19.36269 | 34133 ft | 480 kts | 83° |
| 2026-05-06 02:52 | 52.01340 | -19.25505 | 34135 ft | 481 kts | 83° |
| 2026-05-06 02:52 | 52.01496 | -19.14657 | 34127 ft | 481 kts | 83° |
| 2026-05-06 02:53 | 52.01642 | -19.03894 | 34128 ft | 480 kts | 83° |
| 2026-05-06 02:53 | 52.01776 | -18.93123 | 34124 ft | 477 kts | 83° |
| 2026-05-06 02:54 | 52.01902 | -18.82390 | 34124 ft | 479 kts | 83° |
| 2026-05-06 02:54 | 52.02018 | -18.71623 | 34120 ft | 478 kts | 83° |
| 2026-05-06 02:55 | 52.02125 | -18.60811 | 34122 ft | 480 kts | 83° |
| 2026-05-06 02:55 | 52.02220 | -18.50040 | 34125 ft | 480 kts | 83° |
| 2026-05-06 02:56 | 52.02307 | -18.39230 | 34126 ft | 480 kts | 83° |
| 2026-05-06 02:56 | 52.02384 | -18.28451 | 34125 ft | 481 kts | 84° |
| 2026-05-06 02:57 | 52.02451 | -18.17713 | 34120 ft | 481 kts | 84° |
| 2026-05-06 02:57 | 52.02507 | -18.06862 | 34121 ft | 480 kts | 84° |
| 2026-05-06 02:58 | 52.02555 | -17.96070 | 34111 ft | 480 kts | 84° |
| 2026-05-06 02:58 | 52.02592 | -17.85273 | 34116 ft | 480 kts | 84° |
| 2026-05-06 02:59 | 52.02620 | -17.74411 | 34118 ft | 482 kts | 84° |
| 2026-05-06 02:59 | 52.02637 | -17.63578 | 34118 ft | 483 kts | 84° |
| 2026-05-06 03:00 | 52.02645 | -17.52698 | 34109 ft | 485 kts | 85° |
| 2026-05-06 03:00 | 52.02642 | -17.41832 | 34106 ft | 483 kts | 85° |
| 2026-05-06 03:01 | 52.02629 | -17.31000 | 34099 ft | 485 kts | 86° |
| 2026-05-06 03:01 | 52.02607 | -17.19995 | 34105 ft | 487 kts | 86° |
| 2026-05-06 03:02 | 52.02574 | -17.09046 | 34103 ft | 488 kts | 86° |
| 2026-05-06 03:02 | 52.02531 | -16.98057 | 34101 ft | 489 kts | 86° |
| 2026-05-06 03:03 | 52.02477 | -16.87052 | 34103 ft | 490 kts | 86° |
| 2026-05-06 03:03 | 52.02413 | -16.76024 | 34117 ft | 491 kts | 87° |
| 2026-05-06 03:04 | 52.02339 | -16.64995 | 34097 ft | 492 kts | 87° |
| 2026-05-06 03:04 | 52.02254 | -16.53942 | 34107 ft | 492 kts | 87° |
| 2026-05-06 03:05 | 52.02159 | -16.42883 | 34117 ft | 494 kts | 87° |
| 2026-05-06 03:05 | 52.02053 | -16.31755 | 34102 ft | 495 kts | 88° |
| 2026-05-06 03:06 | 52.01936 | -16.20667 | 34107 ft | 495 kts | 88° |
| 2026-05-06 03:06 | 52.01809 | -16.09562 | 34105 ft | 494 kts | 88° |
| 2026-05-06 03:07 | 52.01672 | -15.98489 | 34077 ft | 485 kts | 88° |
| 2026-05-06 03:07 | 52.01527 | -15.87645 | 34082 ft | 482 kts | 88° |
| 2026-05-06 03:08 | 52.01374 | -15.76839 | 34079 ft | 483 kts | 89° |
| 2026-05-06 03:08 | 52.01210 | -15.65919 | 34085 ft | 485 kts | 89° |
| 2026-05-06 03:09 | 52.01035 | -15.55057 | 34082 ft | 485 kts | 89° |
| 2026-05-06 03:09 | 52.00850 | -15.44091 | 34074 ft | 486 kts | 89° |
| 2026-05-06 03:10 | 52.00654 | -15.33196 | 34076 ft | 487 kts | 90° |
| 2026-05-06 03:10 | 52.00448 | -15.22254 | 34072 ft | 487 kts | 90° |
| 2026-05-06 03:11 | 52.00232 | -15.11322 | 34072 ft | 487 kts | 90° |
| 2026-05-06 03:11 | 52.00006 | -15.00408 | 34067 ft | 486 kts | 90° |
| 2026-05-06 03:12 | 51.99987 | -14.89453 | 34068 ft | 486 kts | 88° |
| 2026-05-06 03:12 | 52.00042 | -14.78492 | 34074 ft | 489 kts | 88° |
| 2026-05-06 03:13 | 52.00076 | -14.67571 | 34072 ft | 489 kts | 88° |
| 2026-05-06 03:13 | 52.00094 | -14.56549 | 34072 ft | 490 kts | 88° |
| 2026-05-06 03:14 | 52.00099 | -14.45559 | 34072 ft | 491 kts | 88° |
| 2026-05-06 03:14 | 52.00091 | -14.34457 | 34075 ft | 492 kts | 89° |
| 2026-05-06 03:15 | 52.00073 | -14.23396 | 34091 ft | 498 kts | 89° |
| 2026-05-06 03:15 | 52.00059 | -14.17760 | 34385 ft | 499 kts | 89° |
| 2026-05-06 03:15 | 52.00043 | -14.12231 | 34887 ft | 495 kts | 89° |
| 2026-05-06 03:15 | 52.00023 | -14.06634 | 35042 ft | 496 kts | 89° |
| 2026-05-06 03:16 | 52.00008 | -14.01093 | 35061 ft | 494 kts | 88° |
| 2026-05-06 03:16 | 52.00570 | -13.89906 | 35074 ft | 503 kts | 83° |
| 2026-05-06 03:17 | 52.01237 | -13.78713 | 35073 ft | 501 kts | 83° |
| 2026-05-06 03:17 | 52.01893 | -13.67441 | 35073 ft | 503 kts | 83° |
| 2026-05-06 03:18 | 52.02534 | -13.56183 | 35074 ft | 503 kts | 83° |
| 2026-05-06 03:18 | 52.03160 | -13.44948 | 35075 ft | 503 kts | 83° |
| 2026-05-06 03:19 | 52.03777 | -13.33680 | 35072 ft | 504 kts | 84° |
| 2026-05-06 03:19 | 52.04387 | -13.22332 | 35074 ft | 504 kts | 84° |
| 2026-05-06 03:20 | 52.05277 | -13.05382 | 35072 ft | 506 kts | 84° |
| 2026-05-06 03:20 | 52.05855 | -12.94089 | 35085 ft | 507 kts | 84° |
| 2026-05-06 03:21 | 52.06430 | -12.82662 | 35076 ft | 506 kts | 84° |
| 2026-05-06 03:21 | 52.06986 | -12.71372 | 35074 ft | 506 kts | 84° |
| 2026-05-06 03:22 | 52.07536 | -12.60000 | 35063 ft | 506 kts | 84° |
| 2026-05-06 03:22 | 52.08075 | -12.48610 | 35074 ft | 506 kts | 84° |
| 2026-05-06 03:23 | 52.08601 | -12.37261 | 35076 ft | 506 kts | 84° |
| 2026-05-06 03:23 | 52.09115 | -12.25948 | 35058 ft | 506 kts | 85° |
| 2026-05-06 03:24 | 52.09620 | -12.14581 | 35062 ft | 507 kts | 85° |
| 2026-05-06 03:24 | 52.10117 | -12.03162 | 35058 ft | 507 kts | 86° |
| 2026-05-06 03:25 | 52.10599 | -11.91807 | 35057 ft | 507 kts | 85° |
| 2026-05-06 03:25 | 52.11070 | -11.80459 | 35063 ft | 506 kts | 85° |
| 2026-05-06 03:26 | 52.11534 | -11.69023 | 35049 ft | 506 kts | 85° |
| 2026-05-06 03:26 | 52.11983 | -11.57671 | 35059 ft | 507 kts | 85° |
| 2026-05-06 03:27 | 52.12425 | -11.46232 | 35063 ft | 507 kts | 85° |
| 2026-05-06 03:27 | 52.12853 | -11.34856 | 35057 ft | 507 kts | 86° |
| 2026-05-06 03:28 | 52.13271 | -11.23468 | 35055 ft | 507 kts | 86° |
| 2026-05-06 03:28 | 52.13676 | -11.12113 | 35047 ft | 507 kts | 86° |
| 2026-05-06 03:29 | 52.14073 | -11.00671 | 35052 ft | 506 kts | 86° |
| 2026-05-06 03:29 | 52.14456 | -10.89317 | 35049 ft | 505 kts | 86° |
| 2026-05-06 03:30 | 52.14829 | -10.77952 | 35047 ft | 505 kts | 86° |
| 2026-05-06 03:30 | 52.15190 | -10.66584 | 35049 ft | 506 kts | 86° |
| 2026-05-06 03:31 | 52.15543 | -10.55175 | 35042 ft | 506 kts | 86° |
| 2026-05-06 03:31 | 52.15882 | -10.43815 | 35043 ft | 507 kts | 86° |
| 2026-05-06 03:32 | 52.16213 | -10.32379 | 35029 ft | 507 kts | 87° |
| 2026-05-06 03:32 | 52.16532 | -10.20960 | 35015 ft | 507 kts | 87° |
| 2026-05-06 03:33 | 52.16840 | -10.09535 | 35017 ft | 506 kts | 87° |
| 2026-05-06 03:33 | 52.17136 | -9.98176 | 35026 ft | 505 kts | 87° |
| 2026-05-06 03:34 | 52.17420 | -9.86808 | 35030 ft | 506 kts | 87° |
| 2026-05-06 03:34 | 52.17696 | -9.75350 | 35040 ft | 506 kts | 87° |
| 2026-05-06 03:35 | 52.17959 | -9.63971 | 35021 ft | 506 kts | 88° |
| 2026-05-06 03:35 | 52.18166 | -9.52502 | 35031 ft | 507 kts | 90° |
| 2026-05-06 03:36 | 52.17953 | -9.41063 | 35035 ft | 507 kts | 91° |
| 2026-05-06 03:36 | 52.17697 | -9.29646 | 35026 ft | 507 kts | 92° |
| 2026-05-06 03:37 | 52.17427 | -9.18248 | 35018 ft | 507 kts | 92° |
| 2026-05-06 03:37 | 52.17146 | -9.06847 | 35017 ft | 507 kts | 93° |
| 2026-05-06 03:38 | 52.16850 | -8.95339 | 35020 ft | 509 kts | 93° |
| 2026-05-06 03:38 | 52.16544 | -8.83888 | 35013 ft | 508 kts | 92° |
| 2026-05-06 03:39 | 52.16228 | -8.72526 | 35025 ft | 507 kts | 92° |
| 2026-05-06 03:39 | 52.15899 | -8.61049 | 35028 ft | 508 kts | 92° |
| 2026-05-06 03:40 | 52.15559 | -8.49608 | 35029 ft | 507 kts | 92° |
| 2026-05-06 03:40 | 52.15212 | -8.38269 | 35032 ft | 506 kts | 92° |
| 2026-05-06 03:41 | 52.14851 | -8.26862 | 35025 ft | 507 kts | 94° |
| 2026-05-06 03:41 | 52.14478 | -8.15416 | 35015 ft | 505 kts | 94° |
| 2026-05-06 03:42 | 52.14098 | -8.04095 | 35009 ft | 505 kts | 94° |
| 2026-05-06 03:42 | 52.13707 | -7.92757 | 35007 ft | 505 kts | 94° |
| 2026-05-06 03:43 | 52.13303 | -7.81387 | 35014 ft | 505 kts | 93° |
| 2026-05-06 03:43 | 52.12890 | -7.70061 | 35021 ft | 505 kts | 93° |
| 2026-05-06 03:44 | 52.12465 | -7.58718 | 35023 ft | 505 kts | 93° |
| 2026-05-06 03:44 | 52.12029 | -7.47363 | 35026 ft | 506 kts | 93° |
| 2026-05-06 03:45 | 52.11579 | -7.35940 | 35028 ft | 506 kts | 93° |
| 2026-05-06 03:45 | 52.11121 | -7.24563 | 35028 ft | 506 kts | 94° |
| 2026-05-06 03:46 | 52.10652 | -7.13232 | 35027 ft | 506 kts | 94° |
| 2026-05-06 03:46 | 52.10171 | -7.01835 | 35028 ft | 506 kts | 94° |
| 2026-05-06 03:47 | 52.09680 | -6.90484 | 35023 ft | 505 kts | 94° |
| 2026-05-06 03:47 | 52.09180 | -6.79188 | 35013 ft | 504 kts | 94° |
| 2026-05-06 03:48 | 52.08669 | -6.67868 | 35010 ft | 504 kts | 94° |
| 2026-05-06 03:48 | 52.08144 | -6.56502 | 35011 ft | 504 kts | 94° |
| 2026-05-06 03:49 | 52.07611 | -6.45183 | 35012 ft | 504 kts | 94° |
| 2026-05-06 03:49 | 52.07070 | -6.33935 | 35011 ft | 503 kts | 95° |
| 2026-05-06 03:50 | 52.06514 | -6.22598 | 35010 ft | 503 kts | 95° |
| 2026-05-06 03:50 | 52.05951 | -6.11343 | 35008 ft | 502 kts | 95° |
| 2026-05-06 03:51 | 52.04831 | -6.00230 | 35015 ft | 503 kts | 105° |
| 2026-05-06 03:51 | 52.03012 | -5.89304 | 35002 ft | 503 kts | 105° |
| 2026-05-06 03:52 | 52.01154 | -5.78398 | 35004 ft | 503 kts | 105° |
| 2026-05-06 03:52 | 51.99286 | -5.67548 | 35003 ft | 503 kts | 105° |
| 2026-05-06 03:53 | 51.97397 | -5.56670 | 34998 ft | 502 kts | 105° |
| 2026-05-06 03:53 | 51.95504 | -5.45856 | 35002 ft | 501 kts | 106° |
| 2026-05-06 03:54 | 51.93606 | -5.35080 | 34997 ft | 501 kts | 105° |
| 2026-05-06 03:54 | 51.91682 | -5.24232 | 34987 ft | 501 kts | 107° |
| 2026-05-06 03:55 | 51.90165 | -5.13250 | 34984 ft | 501 kts | 100° |
| 2026-05-06 03:55 | 51.88945 | -5.02177 | 34979 ft | 502 kts | 100° |
| 2026-05-06 03:56 | 51.87687 | -4.91152 | 34986 ft | 502 kts | 101° |
| 2026-05-06 03:56 | 51.86398 | -4.80121 | 34981 ft | 502 kts | 101° |
| 2026-05-06 03:57 | 51.85086 | -4.69083 | 34975 ft | 502 kts | 101° |
| 2026-05-06 03:57 | 51.83760 | -4.58061 | 34979 ft | 501 kts | 101° |
| 2026-05-06 03:58 | 51.82425 | -4.47089 | 34981 ft | 500 kts | 101° |
| 2026-05-06 03:58 | 51.81071 | -4.36063 | 34980 ft | 500 kts | 101° |
| 2026-05-06 03:59 | 51.79720 | -4.25156 | 34971 ft | 499 kts | 101° |
| 2026-05-06 03:59 | 51.78344 | -4.14147 | 34975 ft | 499 kts | 101° |
| 2026-05-06 04:00 | 51.76970 | -4.03241 | 34974 ft | 499 kts | 101° |
| 2026-05-06 04:00 | 51.75588 | -3.92350 | 34969 ft | 499 kts | 101° |
| 2026-05-06 04:01 | 51.74194 | -3.81462 | 34975 ft | 498 kts | 101° |
| 2026-05-06 04:01 | 51.72781 | -3.70510 | 34977 ft | 499 kts | 101° |
| 2026-05-06 04:02 | 51.71366 | -3.59635 | 34976 ft | 499 kts | 101° |
| 2026-05-06 04:02 | 51.70497 | -3.48641 | 34972 ft | 498 kts | 94° |
| 2026-05-06 04:03 | 51.69860 | -3.37581 | 34973 ft | 497 kts | 94° |
| 2026-05-06 04:03 | 51.69208 | -3.26494 | 34968 ft | 497 kts | 95° |
| 2026-05-06 04:04 | 51.68548 | -3.15488 | 34970 ft | 497 kts | 95° |
| 2026-05-06 04:04 | 51.67873 | -3.04426 | 34978 ft | 497 kts | 95° |
| 2026-05-06 04:05 | 51.67188 | -2.93394 | 34987 ft | 497 kts | 95° |
| 2026-05-06 04:05 | 51.66492 | -2.82358 | 34986 ft | 497 kts | 95° |
| 2026-05-06 04:06 | 51.65786 | -2.71346 | 34981 ft | 496 kts | 95° |
| 2026-05-06 04:06 | 51.65075 | -2.60412 | 34988 ft | 497 kts | 95° |
| 2026-05-06 04:07 | 51.64345 | -2.49343 | 34984 ft | 496 kts | 95° |
| 2026-05-06 04:07 | 51.63611 | -2.38375 | 34983 ft | 497 kts | 95° |
| 2026-05-06 04:08 | 51.62861 | -2.27345 | 34972 ft | 496 kts | 96° |
| 2026-05-06 04:08 | 51.62106 | -2.16388 | 34970 ft | 496 kts | 96° |
| 2026-05-06 04:09 | 51.61341 | -2.05423 | 34965 ft | 494 kts | 96° |
| 2026-05-06 04:09 | 51.60569 | -1.94523 | 34972 ft | 494 kts | 96° |
| 2026-05-06 04:10 | 51.59782 | -1.83545 | 34975 ft | 494 kts | 96° |
| 2026-05-06 04:10 | 51.58986 | -1.72603 | 34979 ft | 495 kts | 96° |
| 2026-05-06 04:11 | 51.57666 | -1.61864 | 34973 ft | 496 kts | 107° |
| 2026-05-06 04:11 | 51.55471 | -1.51401 | 34973 ft | 495 kts | 108° |
| 2026-05-06 04:12 | 51.53245 | -1.40978 | 34965 ft | 495 kts | 108° |
| 2026-05-06 04:12 | 51.51002 | -1.30532 | 34966 ft | 494 kts | 109° |
| 2026-05-06 04:13 | 51.48942 | -1.20145 | 34960 ft | 492 kts | 102° |
| 2026-05-06 04:13 | 51.47590 | -1.09353 | 34961 ft | 493 kts | 101° |
| 2026-05-06 04:14 | 51.46270 | -0.98660 | 34961 ft | 493 kts | 101° |
| 2026-05-06 04:14 | 51.44935 | -0.87937 | 34959 ft | 494 kts | 101° |
| 2026-05-06 04:15 | 51.43580 | -0.77164 | 34959 ft | 493 kts | 101° |
| 2026-05-06 04:15 | 51.42220 | -0.66442 | 34964 ft | 493 kts | 101° |
| 2026-05-06 04:16 | 51.40852 | -0.55743 | 34964 ft | 493 kts | 101° |
| 2026-05-06 04:16 | 51.39472 | -0.45036 | 34963 ft | 492 kts | 101° |
| 2026-05-06 04:17 | 51.38080 | -0.34315 | 34954 ft | 492 kts | 102° |
| 2026-05-06 04:17 | 51.36684 | -0.23655 | 34959 ft | 492 kts | 102° |
| 2026-05-06 04:18 | 51.35280 | -0.12998 | 34954 ft | 492 kts | 102° |
| 2026-05-06 04:18 | 51.33864 | -0.02347 | 34953 ft | 492 kts | 102° |
| 2026-05-06 04:19 | 51.32525 | 0.08361 | 34947 ft | 492 kts | 98° |
| 2026-05-06 04:19 | 51.31549 | 0.19160 | 34944 ft | 493 kts | 98° |
| 2026-05-06 04:20 | 51.30563 | 0.29867 | 34935 ft | 491 kts | 98° |
| 2026-05-06 04:20 | 51.29549 | 0.40619 | 34925 ft | 491 kts | 98° |
| 2026-05-06 04:21 | 51.28519 | 0.51352 | 34921 ft | 490 kts | 98° |
| 2026-05-06 04:21 | 51.27480 | 0.62026 | 34920 ft | 489 kts | 98° |
| 2026-05-06 04:22 | 51.26425 | 0.72738 | 34920 ft | 488 kts | 99° |
| 2026-05-06 04:23 | 51.24831 | 0.88707 | 34920 ft | 487 kts | 99° |
| 2026-05-06 04:23 | 51.23758 | 0.99325 | 34923 ft | 489 kts | 99° |
| 2026-05-06 04:24 | 51.22674 | 1.09943 | 34924 ft | 488 kts | 99° |
| 2026-05-06 04:24 | 51.21577 | 1.20593 | 34918 ft | 488 kts | 99° |
| 2026-05-06 04:25 | 51.20474 | 1.31202 | 34915 ft | 487 kts | 99° |
| 2026-05-06 04:25 | 51.19364 | 1.41777 | 34906 ft | 485 kts | 99° |
| 2026-05-06 04:26 | 51.18245 | 1.52344 | 34899 ft | 484 kts | 99° |
| 2026-05-06 04:26 | 51.17121 | 1.62870 | 34898 ft | 485 kts | 99° |
| 2026-05-06 04:27 | 51.15988 | 1.73379 | 34896 ft | 484 kts | 99° |
| 2026-05-06 04:27 | 51.14844 | 1.83901 | 34890 ft | 482 kts | 100° |
| 2026-05-06 04:28 | 51.13697 | 1.94356 | 34890 ft | 483 kts | 100° |
| 2026-05-06 04:28 | 51.12657 | 2.04845 | 34884 ft | 482 kts | 95° |
| 2026-05-06 04:29 | 51.12151 | 2.15472 | 34887 ft | 482 kts | 95° |
| 2026-05-06 04:29 | 51.11623 | 2.26058 | 34890 ft | 482 kts | 95° |
| 2026-05-06 04:30 | 51.11065 | 2.36623 | 34893 ft | 482 kts | 95° |
| 2026-05-06 04:30 | 51.10485 | 2.47206 | 34887 ft | 481 kts | 95° |
| 2026-05-06 04:31 | 51.09891 | 2.57751 | 34883 ft | 480 kts | 95° |
| 2026-05-06 04:31 | 51.08900 | 2.68182 | 34883 ft | 481 kts | 105° |
| 2026-05-06 04:32 | 51.07080 | 2.78398 | 34878 ft | 480 kts | 107° |
| 2026-05-06 04:32 | 51.05239 | 2.88535 | 34873 ft | 481 kts | 107° |
| 2026-05-06 04:33 | 51.03378 | 2.98719 | 34870 ft | 480 kts | 107° |
| 2026-05-06 04:33 | 51.01519 | 3.08839 | 34863 ft | 481 kts | 107° |
| 2026-05-06 04:34 | 50.99645 | 3.18986 | 34856 ft | 480 kts | 107° |
| 2026-05-06 04:34 | 50.97765 | 3.29104 | 34854 ft | 480 kts | 107° |
| 2026-05-06 04:35 | 50.95884 | 3.39178 | 34840 ft | 479 kts | 107° |
| 2026-05-06 04:35 | 50.93992 | 3.49253 | 34837 ft | 479 kts | 107° |
| 2026-05-06 04:36 | 50.92088 | 3.59337 | 34844 ft | 480 kts | 107° |
| 2026-05-06 04:36 | 50.90175 | 3.69417 | 34844 ft | 480 kts | 107° |
| 2026-05-06 04:37 | 50.88242 | 3.79556 | 34833 ft | 480 kts | 107° |
| 2026-05-06 04:37 | 50.86311 | 3.89626 | 34845 ft | 479 kts | 107° |
| 2026-05-06 04:38 | 50.84381 | 3.99642 | 34860 ft | 478 kts | 107° |
| 2026-05-06 04:38 | 50.82442 | 4.09649 | 34838 ft | 479 kts | 108° |
| 2026-05-06 04:39 | 50.80479 | 4.19730 | 34838 ft | 479 kts | 108° |
| 2026-05-06 04:39 | 50.78519 | 4.29740 | 34810 ft | 480 kts | 108° |
| 2026-05-06 04:40 | 50.76546 | 4.39763 | 34817 ft | 480 kts | 108° |
| 2026-05-06 04:40 | 50.74568 | 4.49762 | 34807 ft | 480 kts | 108° |
| 2026-05-06 04:41 | 50.72578 | 4.59769 | 34803 ft | 479 kts | 108° |
| 2026-05-06 04:41 | 50.70567 | 4.69831 | 34794 ft | 480 kts | 109° |
| 2026-05-06 04:42 | 50.68565 | 4.79792 | 34799 ft | 481 kts | 109° |
| 2026-05-06 04:42 | 50.66545 | 4.89796 | 34789 ft | 481 kts | 109° |
| 2026-05-06 04:43 | 50.64505 | 4.99794 | 34804 ft | 481 kts | 109° |
| 2026-05-06 04:43 | 50.62452 | 5.09776 | 34792 ft | 480 kts | 109° |
| 2026-05-06 04:44 | 50.60392 | 5.19747 | 34797 ft | 480 kts | 109° |
| 2026-05-06 04:44 | 50.58332 | 5.29663 | 34801 ft | 480 kts | 109° |
| 2026-05-06 04:45 | 50.56249 | 5.39643 | 34785 ft | 481 kts | 109° |
| 2026-05-06 04:45 | 50.54159 | 5.49609 | 34787 ft | 481 kts | 109° |
| 2026-05-06 04:46 | 50.52072 | 5.59515 | 34785 ft | 480 kts | 109° |
| 2026-05-06 04:46 | 50.50095 | 5.69468 | 34779 ft | 481 kts | 108° |
| 2026-05-06 04:47 | 50.48238 | 5.79529 | 34764 ft | 481 kts | 108° |
| 2026-05-06 04:47 | 50.46373 | 5.89524 | 34758 ft | 475 kts | 108° |
| 2026-05-06 04:47 | 50.45450 | 5.94440 | 34568 ft | 473 kts | 108° |
| 2026-05-06 04:48 | 50.44518 | 5.99384 | 34265 ft | 469 kts | 108° |
| 2026-05-06 04:48 | 50.43604 | 6.04217 | 33937 ft | 465 kts | 107° |
| 2026-05-06 04:48 | 50.42677 | 6.09097 | 33180 ft | 470 kts | 107° |
| 2026-05-06 04:48 | 50.41741 | 6.14011 | 31982 ft | 480 kts | 106° |
| 2026-05-06 04:49 | 50.40796 | 6.18961 | 31021 ft | 483 kts | 106° |
| 2026-05-06 04:49 | 50.39830 | 6.24000 | 30144 ft | 482 kts | 106° |
| 2026-05-06 04:49 | 50.38882 | 6.28937 | 29700 ft | 473 kts | 106° |
| 2026-05-06 04:49 | 50.37941 | 6.33823 | 29244 ft | 464 kts | 106° |
| 2026-05-06 04:50 | 50.37019 | 6.38597 | 28732 ft | 458 kts | 106° |
| 2026-05-06 04:50 | 50.36338 | 6.43407 | 28214 ft | 451 kts | 98° |
| 2026-05-06 04:50 | 50.36000 | 6.48271 | 27707 ft | 445 kts | 96° |
| 2026-05-06 04:50 | 50.35710 | 6.53039 | 27201 ft | 439 kts | 96° |
| 2026-05-06 04:51 | 50.35418 | 6.57747 | 26693 ft | 434 kts | 96° |
| 2026-05-06 04:51 | 50.35131 | 6.62338 | 26209 ft | 428 kts | 96° |
| 2026-05-06 04:51 | 50.34842 | 6.66940 | 25933 ft | 417 kts | 97° |
| 2026-05-06 04:51 | 50.34561 | 6.71380 | 25410 ft | 412 kts | 97° |
| 2026-05-06 04:52 | 50.34278 | 6.75814 | 24670 ft | 410 kts | 97° |
| 2026-05-06 04:52 | 50.33998 | 6.80182 | 24038 ft | 407 kts | 97° |
| 2026-05-06 04:52 | 50.33590 | 6.84544 | 23454 ft | 403 kts | 105° |
| 2026-05-06 04:52 | 50.32791 | 6.88704 | 22883 ft | 399 kts | 114° |
| 2026-05-06 04:53 | 50.31688 | 6.92638 | 22175 ft | 400 kts | 117° |
| 2026-05-06 04:53 | 50.30510 | 6.96603 | 21520 ft | 400 kts | 117° |
| 2026-05-06 04:53 | 50.29352 | 7.00488 | 21071 ft | 395 kts | 117° |
| 2026-05-06 04:53 | 50.28199 | 7.04358 | 20574 ft | 391 kts | 117° |
| 2026-05-06 04:54 | 50.27068 | 7.08148 | 20004 ft | 390 kts | 117° |
| 2026-05-06 04:54 | 50.25918 | 7.11993 | 19392 ft | 389 kts | 117° |
| 2026-05-06 04:54 | 50.24788 | 7.15769 | 18884 ft | 386 kts | 117° |
| 2026-05-06 04:54 | 50.23646 | 7.19575 | 18360 ft | 383 kts | 118° |
| 2026-05-06 04:55 | 50.22535 | 7.23272 | 17762 ft | 383 kts | 118° |
| 2026-05-06 04:55 | 50.21407 | 7.27037 | 17242 ft | 381 kts | 116° |
| 2026-05-06 04:55 | 50.20593 | 7.30969 | 16792 ft | 380 kts | 103° |
| 2026-05-06 04:55 | 50.20361 | 7.35021 | 16380 ft | 379 kts | 89° |
| 2026-05-06 04:56 | 50.20636 | 7.39098 | 15981 ft | 379 kts | 83° |
| 2026-05-06 04:56 | 50.21019 | 7.43168 | 15587 ft | 381 kts | 83° |
| 2026-05-06 04:56 | 50.21402 | 7.47187 | 15203 ft | 378 kts | 83° |
| 2026-05-06 04:56 | 50.21784 | 7.51215 | 14808 ft | 375 kts | 83° |
| 2026-05-06 04:57 | 50.22165 | 7.55240 | 14421 ft | 373 kts | 83° |
| 2026-05-06 04:57 | 50.22541 | 7.59243 | 14042 ft | 371 kts | 83° |
| 2026-05-06 04:57 | 50.22914 | 7.63169 | 13672 ft | 370 kts | 83° |
| 2026-05-06 04:57 | 50.23288 | 7.67110 | 13298 ft | 367 kts | 84° |
| 2026-05-06 04:58 | 50.23663 | 7.71060 | 12925 ft | 365 kts | 83° |
| 2026-05-06 04:58 | 50.24028 | 7.74948 | 12549 ft | 363 kts | 84° |
| 2026-05-06 04:58 | 50.24392 | 7.78823 | 12177 ft | 361 kts | 83° |
| 2026-05-06 04:58 | 50.24752 | 7.82702 | 11796 ft | 359 kts | 83° |
| 2026-05-06 04:59 | 50.25104 | 7.86513 | 11428 ft | 357 kts | 83° |
| 2026-05-06 04:59 | 50.25456 | 7.90354 | 11051 ft | 355 kts | 83° |
| 2026-05-06 04:59 | 50.25793 | 7.94107 | 10777 ft | 351 kts | 83° |
| 2026-05-06 04:59 | 50.26129 | 7.97908 | 10755 ft | 353 kts | 83° |
| 2026-05-06 05:00 | 50.26458 | 8.01677 | 10757 ft | 353 kts | 83° |
| 2026-05-06 05:00 | 50.26792 | 8.05500 | 10757 ft | 354 kts | 83° |
| 2026-05-06 05:00 | 50.27123 | 8.09296 | 10756 ft | 355 kts | 83° |
| 2026-05-06 05:00 | 50.27459 | 8.13103 | 10756 ft | 348 kts | 83° |
| 2026-05-06 05:01 | 50.27781 | 8.16711 | 10756 ft | 332 kts | 83° |
| 2026-05-06 05:01 | 50.28097 | 8.20230 | 10758 ft | 317 kts | 83° |
| 2026-05-06 05:01 | 50.28401 | 8.23561 | 10759 ft | 310 kts | 83° |
| 2026-05-06 05:01 | 50.28702 | 8.26858 | 10737 ft | 310 kts | 83° |
| 2026-05-06 05:02 | 50.29007 | 8.30230 | 10401 ft | 313 kts | 83° |
| 2026-05-06 05:02 | 50.29305 | 8.33566 | 10035 ft | 312 kts | 83° |
| 2026-05-06 05:02 | 50.29604 | 8.36922 | 9665 ft | 311 kts | 83° |
| 2026-05-06 05:02 | 50.29900 | 8.40257 | 9295 ft | 311 kts | 83° |
| 2026-05-06 05:03 | 50.30192 | 8.43592 | 8924 ft | 310 kts | 83° |
| 2026-05-06 05:03 | 50.30480 | 8.46889 | 8771 ft | 301 kts | 83° |
| 2026-05-06 05:03 | 50.30757 | 8.50055 | 8754 ft | 291 kts | 83° |
| 2026-05-06 05:03 | 50.31029 | 8.53185 | 8758 ft | 290 kts | 83° |
| 2026-05-06 05:04 | 50.31302 | 8.56320 | 8757 ft | 290 kts | 83° |
| 2026-05-06 05:04 | 50.31569 | 8.59402 | 8755 ft | 290 kts | 83° |
| 2026-05-06 05:04 | 50.31842 | 8.62524 | 8759 ft | 291 kts | 83° |
| 2026-05-06 05:04 | 50.32119 | 8.65685 | 8615 ft | 293 kts | 84° |
| 2026-05-06 05:05 | 50.32393 | 8.68816 | 8364 ft | 290 kts | 84° |
| 2026-05-06 05:05 | 50.32663 | 8.71925 | 8113 ft | 287 kts | 84° |
| 2026-05-06 05:05 | 50.32930 | 8.74994 | 7861 ft | 287 kts | 84° |
| 2026-05-06 05:05 | 50.33197 | 8.78079 | 7610 ft | 286 kts | 84° |
| 2026-05-06 05:06 | 50.33462 | 8.81152 | 7359 ft | 284 kts | 84° |
| 2026-05-06 05:06 | 50.33722 | 8.84180 | 7112 ft | 283 kts | 84° |
| 2026-05-06 05:06 | 50.33953 | 8.87239 | 6852 ft | 282 kts | 91° |
| 2026-05-06 05:06 | 50.33592 | 8.90190 | 6774 ft | 276 kts | 112° |
| 2026-05-06 05:07 | 50.32933 | 8.93003 | 6764 ft | 277 kts | 114° |
| 2026-05-06 05:07 | 50.32251 | 8.95813 | 6763 ft | 277 kts | 114° |
| 2026-05-06 05:07 | 50.31432 | 8.99166 | 6764 ft | 277 kts | 114° |
| 2026-05-06 05:07 | 50.30740 | 9.01992 | 6759 ft | 277 kts | 114° |
| 2026-05-06 05:08 | 50.30051 | 9.04791 | 6762 ft | 277 kts | 114° |
| 2026-05-06 05:08 | 50.29361 | 9.07596 | 6760 ft | 277 kts | 114° |
| 2026-05-06 05:08 | 50.28493 | 9.10245 | 6658 ft | 274 kts | 133° |
| 2026-05-06 05:08 | 50.27033 | 9.12054 | 6409 ft | 264 kts | 156° |
| 2026-05-06 05:09 | 50.25405 | 9.13291 | 6164 ft | 260 kts | 159° |
| 2026-05-06 05:09 | 50.23781 | 9.14480 | 5920 ft | 254 kts | 159° |
| 2026-05-06 05:09 | 50.22140 | 9.15118 | 5648 ft | 239 kts | 185° |
| 2026-05-06 05:09 | 50.20609 | 9.14432 | 5384 ft | 225 kts | 211° |
| 2026-05-06 05:10 | 50.19313 | 9.13184 | 5132 ft | 218 kts | 222° |
| 2026-05-06 05:10 | 50.18464 | 9.11318 | 4995 ft | 207 kts | 244° |
| 2026-05-06 05:10 | 50.17873 | 9.09258 | 4986 ft | 208 kts | 246° |
| 2026-05-06 05:10 | 50.17334 | 9.07190 | 4985 ft | 207 kts | 248° |
| 2026-05-06 05:11 | 50.16814 | 9.05085 | 4984 ft | 208 kts | 249° |
| 2026-05-06 05:11 | 50.16307 | 9.02974 | 4980 ft | 208 kts | 249° |
| 2026-05-06 05:11 | 50.15807 | 9.00846 | 4979 ft | 208 kts | 249° |
| 2026-05-06 05:11 | 50.15317 | 8.98741 | 4974 ft | 208 kts | 250° |
| 2026-05-06 05:12 | 50.14828 | 8.96628 | 4969 ft | 206 kts | 250° |
| 2026-05-06 05:12 | 50.14344 | 8.94535 | 4973 ft | 208 kts | 250° |
| 2026-05-06 05:12 | 50.13851 | 8.92413 | 4973 ft | 208 kts | 250° |
| 2026-05-06 05:12 | 50.13359 | 8.90308 | 4974 ft | 208 kts | 250° |
| 2026-05-06 05:13 | 50.12873 | 8.88236 | 4963 ft | 196 kts | 250° |
| 2026-05-06 05:13 | 50.12424 | 8.86332 | 4969 ft | 182 kts | 249° |
| 2026-05-06 05:13 | 50.11982 | 8.84463 | 4825 ft | 182 kts | 249° |
| 2026-05-06 05:13 | 50.11556 | 8.82659 | 4582 ft | 178 kts | 249° |
| 2026-05-06 05:14 | 50.11133 | 8.80874 | 4335 ft | 175 kts | 249° |
| 2026-05-06 05:14 | 50.10710 | 8.79090 | 4086 ft | 174 kts | 249° |
| 2026-05-06 05:14 | 50.10292 | 8.77325 | 3837 ft | 174 kts | 249° |
| 2026-05-06 05:14 | 50.09876 | 8.75568 | 3590 ft | 173 kts | 249° |
| 2026-05-06 05:15 | 50.09465 | 8.73836 | 3347 ft | 172 kts | 249° |
| 2026-05-06 05:15 | 50.09049 | 8.72086 | 3097 ft | 171 kts | 249° |
| 2026-05-06 05:15 | 50.08635 | 8.70344 | 2849 ft | 172 kts | 249° |
| 2026-05-06 05:15 | 50.08223 | 8.68609 | 2601 ft | 172 kts | 249° |
| 2026-05-06 05:16 | 50.07812 | 8.66887 | 2355 ft | 163 kts | 249° |
| 2026-05-06 05:16 | 50.07420 | 8.65240 | 2124 ft | 162 kts | 249° |
| 2026-05-06 05:16 | 50.07036 | 8.63629 | 1879 ft | 155 kts | 248° |
| 2026-05-06 05:16 | 50.06675 | 8.62117 | 1667 ft | 148 kts | 248° |
| 2026-05-06 05:17 | 50.06321 | 8.60635 | 1456 ft | 146 kts | 248° |
| 2026-05-06 05:17 | 50.05967 | 8.59151 | 1244 ft | 146 kts | 248° |
| 2026-05-06 05:17 | 50.05616 | 8.57680 | 1026 ft | 147 kts | 248° |
| 2026-05-06 05:17 | 50.05257 | 8.56182 | 778 ft | 146 kts | 248° |
| 2026-05-06 05:18 | 50.04901 | 8.54690 | 556 ft | 148 kts | 248° |
| 2026-05-06 05:18 | 50.04551 | 8.53214 | 389 ft | 148 kts | 248° |
| 2026-05-06 05:18 | 50.04214 | 8.51832 | 357 ft | 109 kts | 250° |
| 2026-05-06 05:18 | 50.03997 | 8.50933 | 357 ft | 74 kts | 250° |
| 2026-05-06 05:19 | 50.03874 | 8.50468 | 357 ft | 30 kts | 236° |
| 2026-05-06 05:19 | 50.03763 | 8.50288 | 357 ft | 20 kts | 220° |
| 2026-05-06 05:19 | 50.03680 | 8.50197 | 357 ft | 10 kts | 196° |
| 2026-05-06 05:19 | 50.03630 | 8.50221 | 357 ft | 6 kts | 118° |
| 2026-05-06 05:20 | 50.03629 | 8.50296 | 357 ft | 6 kts | 73° |
| 2026-05-06 05:20 | 50.03650 | 8.50382 | 357 ft | 13 kts | 70° |
| 2026-05-06 05:20 | 50.03683 | 8.50519 | 357 ft | 13 kts | 70° |
| 2026-05-06 05:20 | 50.03715 | 8.50651 | 357 ft | 12 kts | 70° |
| 2026-05-06 05:21 | 50.03740 | 8.50758 | 357 ft | 10 kts | 70° |
| 2026-05-06 05:21 | 50.03768 | 8.50874 | 357 ft | 13 kts | 70° |
| 2026-05-06 05:21 | 50.03805 | 8.51033 | 357 ft | 17 kts | 69° |
| 2026-05-06 05:21 | 50.03852 | 8.51222 | 357 ft | 18 kts | 70° |
| 2026-05-06 05:22 | 50.03896 | 8.51405 | 357 ft | 18 kts | 70° |
| 2026-05-06 05:22 | 50.03946 | 8.51611 | 357 ft | 20 kts | 70° |
| 2026-05-06 05:22 | 50.03994 | 8.51813 | 357 ft | 19 kts | 70° |
| 2026-05-06 05:22 | 50.04039 | 8.52000 | 357 ft | 17 kts | 70° |
| 2026-05-06 05:23 | 50.04080 | 8.52171 | 357 ft | 16 kts | 70° |
| 2026-05-06 05:23 | 50.04119 | 8.52333 | 357 ft | 15 kts | 70° |
| 2026-05-06 05:23 | 50.04188 | 8.52623 | 357 ft | 14 kts | 70° |
| 2026-05-06 05:24 | 50.04225 | 8.52773 | 357 ft | 15 kts | 69° |
| 2026-05-06 05:24 | 50.04263 | 8.52930 | 357 ft | 16 kts | 70° |
| 2026-05-06 05:24 | 50.04302 | 8.53096 | 357 ft | 16 kts | 70° |
| 2026-05-06 05:24 | 50.04343 | 8.53266 | 357 ft | 16 kts | 70° |
| 2026-05-06 05:25 | 50.04385 | 8.53439 | 357 ft | 17 kts | 70° |
| 2026-05-06 05:25 | 50.04405 | 8.53609 | 357 ft | 10 kts | 85° |
| 2026-05-06 05:25 | 50.04409 | 8.53682 | 357 ft | 9 kts | 85° |
| 2026-05-06 05:25 | 50.04418 | 8.53808 | 357 ft | 12 kts | 84° |
| 2026-05-06 05:26 | 50.04429 | 8.53958 | 357 ft | 15 kts | 84° |
| 2026-05-06 05:26 | 50.04440 | 8.54143 | 357 ft | 17 kts | 85° |
| 2026-05-06 05:26 | 50.04448 | 8.54262 | 357 ft | 7 kts | 84° |
| 2026-05-06 05:26 | 50.04455 | 8.54378 | 357 ft | 13 kts | 86° |
| 2026-05-06 05:27 | 50.04448 | 8.54533 | 357 ft | 15 kts | 105° |
| 2026-05-06 05:27 | 50.04392 | 8.54687 | 357 ft | 16 kts | 130° |
| 2026-05-06 05:27 | 50.04307 | 8.54781 | 357 ft | 14 kts | 157° |
| 2026-05-06 05:27 | 50.04216 | 8.54833 | 357 ft | 13 kts | 161° |
| 2026-05-06 05:28 | 50.04131 | 8.54879 | 357 ft | 12 kts | 159° |
| 2026-05-06 05:28 | 50.04052 | 8.54926 | 357 ft | 11 kts | 159° |
| 2026-05-06 05:28 | 50.03980 | 8.54969 | 357 ft | 10 kts | 159° |
| 2026-05-06 05:28 | 50.03903 | 8.55014 | 357 ft | 12 kts | 160° |
| 2026-05-06 05:29 | 50.03851 | 8.55097 | 357 ft | 11 kts | 91° |
| 2026-05-06 05:29 | 50.03876 | 8.55221 | 357 ft | 13 kts | 69° |
| 2026-05-06 05:29 | 50.03911 | 8.55363 | 357 ft | 13 kts | 70° |
| 2026-05-06 05:29 | 50.03944 | 8.55502 | 357 ft | 15 kts | 70° |
| 2026-05-06 05:30 | 50.03985 | 8.55671 | 357 ft | 16 kts | 70° |
| 2026-05-06 05:30 | 50.04023 | 8.55832 | 357 ft | 15 kts | 70° |
| 2026-05-06 05:30 | 50.04057 | 8.55959 | 357 ft | 9 kts | 46° |
| 2026-05-06 05:30 | 50.04106 | 8.55968 | 357 ft | 7 kts | 340° |
| 2026-05-06 05:31 | 50.04155 | 8.55940 | 357 ft | 8 kts | 340° |
| 2026-05-06 05:31 | 50.04212 | 8.55922 | 357 ft | 8 kts | 13° |
| 2026-05-06 05:31 | 50.04262 | 8.55959 | 357 ft | 7 kts | 22° |
| 2026-05-06 05:31 | 50.04318 | 8.55949 | 357 ft | 8 kts | 339° |
| 2026-05-06 05:32 | 50.04375 | 8.55919 | 357 ft | 9 kts | 347° |
| 2026-05-06 05:32 | 50.04446 | 8.55920 | 357 ft | 10 kts | 14° |
| 2026-05-06 05:32 | 50.04513 | 8.55950 | 357 ft | 10 kts | 15° |
| 2026-05-06 05:32 | 50.04566 | 8.56017 | 357 ft | 10 kts | 63° |
| 2026-05-06 05:33 | 50.04593 | 8.56117 | 357 ft | 9 kts | 70° |
| 2026-05-06 05:33 | 50.04616 | 8.56213 | 357 ft | 9 kts | 70° |
| 2026-05-06 05:33 | 50.04639 | 8.56306 | 357 ft | 9 kts | 69° |
| 2026-05-06 05:33 | 50.04657 | 8.56396 | 357 ft | 8 kts | 88° |
| 2026-05-06 05:34 | 50.04634 | 8.56471 | 357 ft | 7 kts | 124° |
| 2026-05-06 05:34 | 50.04610 | 8.56541 | 357 ft | 4 kts | 116° |
| 2026-05-06 05:34 | 50.04602 | 8.56569 | 357 ft | 2 kts | 115° |
| 2026-05-06 05:34 | 50.04594 | 8.56597 | 357 ft | 2 kts | 115° |
| 2026-05-06 05:35 | 50.04590 | 8.56609 | 357 ft | 0 kts | 115° |